<?xml version="1.0" encoding="UTF-8" standalone="no" ?>
<gpx xmlns="http://www.topografix.com/GPX/1/1" xmlns:xsi="http://www.w3.org/2001/XMLSchema-instance" xsi:schemaLocation="http://www.topografix.com/GPX/1/1 http://www.topografix.com/GPX/1/1/gpx.xsd" version="1.1" creator="VisuGPX - https://www.visugpx.com">
  <metadata>
    <name>2020-10-29 16:11:53</name>
    <desc><![CDATA[Beaumont le Roger]]></desc>
  </metadata>
  <trk>
    <name><![CDATA[2020-10-29 16:11:53]]></name>
    <trkseg>
      <trkpt lat="49.08752" lon="0.76319">
        <ele>140.97</ele>
        <time>2020-10-29T13:40:50Z</time>
      </trkpt>
      <trkpt lat="49.08752" lon="0.7632">
        <ele>140.97</ele>
        <time>2020-10-29T13:40:51Z</time>
      </trkpt>
      <trkpt lat="49.08751" lon="0.76319">
        <ele>84.73</ele>
        <time>2020-10-29T13:40:54Z</time>
      </trkpt>
      <trkpt lat="49.08751" lon="0.76319">
        <ele>84.73</ele>
        <time>2020-10-29T13:40:55Z</time>
      </trkpt>
      <trkpt lat="49.08749" lon="0.76323">
        <ele>84.73</ele>
        <time>2020-10-29T13:41:03Z</time>
      </trkpt>
      <trkpt lat="49.08748" lon="0.76326">
        <ele>84.73</ele>
        <time>2020-10-29T13:41:04Z</time>
      </trkpt>
      <trkpt lat="49.08747" lon="0.76331">
        <ele>84.73</ele>
        <time>2020-10-29T13:41:05Z</time>
      </trkpt>
      <trkpt lat="49.08747" lon="0.76337">
        <ele>84.73</ele>
        <time>2020-10-29T13:41:06Z</time>
      </trkpt>
      <trkpt lat="49.08748" lon="0.76341">
        <ele>84.73</ele>
        <time>2020-10-29T13:41:07Z</time>
      </trkpt>
      <trkpt lat="49.08749" lon="0.76346">
        <ele>84.73</ele>
        <time>2020-10-29T13:41:08Z</time>
      </trkpt>
      <trkpt lat="49.0875" lon="0.76352">
        <ele>84.73</ele>
        <time>2020-10-29T13:41:09Z</time>
      </trkpt>
      <trkpt lat="49.08752" lon="0.76358">
        <ele>84.73</ele>
        <time>2020-10-29T13:41:10Z</time>
      </trkpt>
      <trkpt lat="49.08795" lon="0.76459">
        <ele>84.25</ele>
        <time>2020-10-29T13:41:28Z</time>
      </trkpt>
      <trkpt lat="49.08843" lon="0.76521">
        <ele>87.14</ele>
        <time>2020-10-29T13:41:43Z</time>
      </trkpt>
      <trkpt lat="49.08853" lon="0.76534">
        <ele>87.62</ele>
        <time>2020-10-29T13:41:46Z</time>
      </trkpt>
      <trkpt lat="49.08856" lon="0.76539">
        <ele>88.1</ele>
        <time>2020-10-29T13:41:47Z</time>
      </trkpt>
      <trkpt lat="49.08857" lon="0.76546">
        <ele>88.1</ele>
        <time>2020-10-29T13:41:48Z</time>
      </trkpt>
      <trkpt lat="49.08858" lon="0.76554">
        <ele>88.1</ele>
        <time>2020-10-29T13:41:49Z</time>
      </trkpt>
      <trkpt lat="49.08857" lon="0.76561">
        <ele>88.58</ele>
        <time>2020-10-29T13:41:50Z</time>
      </trkpt>
      <trkpt lat="49.08855" lon="0.76566">
        <ele>88.58</ele>
        <time>2020-10-29T13:41:51Z</time>
      </trkpt>
      <trkpt lat="49.08852" lon="0.76572">
        <ele>88.58</ele>
        <time>2020-10-29T13:41:52Z</time>
      </trkpt>
      <trkpt lat="49.08849" lon="0.76577">
        <ele>89.54</ele>
        <time>2020-10-29T13:41:53Z</time>
      </trkpt>
      <trkpt lat="49.08804" lon="0.76642">
        <ele>92.42</ele>
        <time>2020-10-29T13:42:09Z</time>
      </trkpt>
      <trkpt lat="49.08734" lon="0.76735">
        <ele>92.42</ele>
        <time>2020-10-29T13:42:28Z</time>
      </trkpt>
      <trkpt lat="49.0867" lon="0.76853">
        <ele>90.5</ele>
        <time>2020-10-29T13:42:45Z</time>
      </trkpt>
      <trkpt lat="49.08597" lon="0.77011">
        <ele>88.58</ele>
        <time>2020-10-29T13:43:04Z</time>
      </trkpt>
      <trkpt lat="49.0854" lon="0.77128">
        <ele>88.58</ele>
        <time>2020-10-29T13:43:20Z</time>
      </trkpt>
      <trkpt lat="49.0853" lon="0.77153">
        <ele>90.02</ele>
        <time>2020-10-29T13:43:24Z</time>
      </trkpt>
      <trkpt lat="49.08531" lon="0.77158">
        <ele>90.02</ele>
        <time>2020-10-29T13:43:25Z</time>
      </trkpt>
      <trkpt lat="49.08534" lon="0.77161">
        <ele>90.02</ele>
        <time>2020-10-29T13:43:26Z</time>
      </trkpt>
      <trkpt lat="49.08537" lon="0.7716">
        <ele>90.5</ele>
        <time>2020-10-29T13:43:27Z</time>
      </trkpt>
      <trkpt lat="49.08539" lon="0.77158">
        <ele>90.5</ele>
        <time>2020-10-29T13:43:28Z</time>
      </trkpt>
      <trkpt lat="49.08541" lon="0.77155">
        <ele>90.5</ele>
        <time>2020-10-29T13:43:29Z</time>
      </trkpt>
      <trkpt lat="49.08543" lon="0.77151">
        <ele>90.5</ele>
        <time>2020-10-29T13:43:30Z</time>
      </trkpt>
      <trkpt lat="49.08581" lon="0.7709">
        <ele>93.87</ele>
        <time>2020-10-29T13:43:46Z</time>
      </trkpt>
      <trkpt lat="49.08617" lon="0.77032">
        <ele>96.27</ele>
        <time>2020-10-29T13:44:03Z</time>
      </trkpt>
      <trkpt lat="49.08647" lon="0.76979">
        <ele>98.19</ele>
        <time>2020-10-29T13:44:20Z</time>
      </trkpt>
      <trkpt lat="49.08674" lon="0.76934">
        <ele>100.6</ele>
        <time>2020-10-29T13:44:35Z</time>
      </trkpt>
      <trkpt lat="49.08683" lon="0.76923">
        <ele>100.6</ele>
        <time>2020-10-29T13:44:41Z</time>
      </trkpt>
      <trkpt lat="49.08684" lon="0.76923">
        <ele>101.08</ele>
        <time>2020-10-29T13:44:42Z</time>
      </trkpt>
      <trkpt lat="49.08685" lon="0.7693">
        <ele>101.56</ele>
        <time>2020-10-29T13:44:46Z</time>
      </trkpt>
      <trkpt lat="49.08678" lon="0.76953">
        <ele>102.04</ele>
        <time>2020-10-29T13:44:54Z</time>
      </trkpt>
      <trkpt lat="49.08676" lon="0.76956">
        <ele>102.52</ele>
        <time>2020-10-29T13:44:55Z</time>
      </trkpt>
      <trkpt lat="49.08675" lon="0.76958">
        <ele>102.52</ele>
        <time>2020-10-29T13:44:56Z</time>
      </trkpt>
      <trkpt lat="49.08674" lon="0.76962">
        <ele>102.52</ele>
        <time>2020-10-29T13:44:57Z</time>
      </trkpt>
      <trkpt lat="49.08672" lon="0.76965">
        <ele>102.52</ele>
        <time>2020-10-29T13:44:58Z</time>
      </trkpt>
      <trkpt lat="49.08649" lon="0.77021">
        <ele>104.44</ele>
        <time>2020-10-29T13:45:12Z</time>
      </trkpt>
      <trkpt lat="49.08616" lon="0.77095">
        <ele>106.36</ele>
        <time>2020-10-29T13:45:28Z</time>
      </trkpt>
      <trkpt lat="49.08586" lon="0.77168">
        <ele>108.29</ele>
        <time>2020-10-29T13:45:44Z</time>
      </trkpt>
      <trkpt lat="49.0856" lon="0.77217">
        <ele>111.17</ele>
        <time>2020-10-29T13:45:57Z</time>
      </trkpt>
      <trkpt lat="49.08541" lon="0.77255">
        <ele>112.13</ele>
        <time>2020-10-29T13:46:10Z</time>
      </trkpt>
      <trkpt lat="49.08521" lon="0.77288">
        <ele>114.05</ele>
        <time>2020-10-29T13:46:22Z</time>
      </trkpt>
      <trkpt lat="49.08509" lon="0.77311">
        <ele>115.01</ele>
        <time>2020-10-29T13:46:30Z</time>
      </trkpt>
      <trkpt lat="49.08508" lon="0.77314">
        <ele>115.98</ele>
        <time>2020-10-29T13:46:31Z</time>
      </trkpt>
      <trkpt lat="49.08507" lon="0.77317">
        <ele>115.98</ele>
        <time>2020-10-29T13:46:32Z</time>
      </trkpt>
      <trkpt lat="49.08509" lon="0.7732">
        <ele>116.46</ele>
        <time>2020-10-29T13:46:37Z</time>
      </trkpt>
      <trkpt lat="49.08509" lon="0.77319">
        <ele>116.94</ele>
        <time>2020-10-29T13:46:38Z</time>
      </trkpt>
      <trkpt lat="49.08511" lon="0.77319">
        <ele>116.94</ele>
        <time>2020-10-29T13:46:40Z</time>
      </trkpt>
      <trkpt lat="49.08512" lon="0.77319">
        <ele>116.94</ele>
        <time>2020-10-29T13:46:41Z</time>
      </trkpt>
      <trkpt lat="49.08513" lon="0.77318">
        <ele>117.42</ele>
        <time>2020-10-29T13:46:42Z</time>
      </trkpt>
      <trkpt lat="49.08514" lon="0.77318">
        <ele>117.42</ele>
        <time>2020-10-29T13:46:43Z</time>
      </trkpt>
      <trkpt lat="49.08515" lon="0.77318">
        <ele>117.42</ele>
        <time>2020-10-29T13:46:44Z</time>
      </trkpt>
      <trkpt lat="49.08532" lon="0.77303">
        <ele>119.82</ele>
        <time>2020-10-29T13:46:59Z</time>
      </trkpt>
      <trkpt lat="49.08547" lon="0.77284">
        <ele>122.22</ele>
        <time>2020-10-29T13:47:14Z</time>
      </trkpt>
      <trkpt lat="49.0855" lon="0.77282">
        <ele>122.22</ele>
        <time>2020-10-29T13:47:16Z</time>
      </trkpt>
      <trkpt lat="49.08551" lon="0.77281">
        <ele>123.19</ele>
        <time>2020-10-29T13:47:17Z</time>
      </trkpt>
      <trkpt lat="49.08552" lon="0.77279">
        <ele>123.19</ele>
        <time>2020-10-29T13:47:18Z</time>
      </trkpt>
      <trkpt lat="49.08568" lon="0.77261">
        <ele>125.59</ele>
        <time>2020-10-29T13:47:32Z</time>
      </trkpt>
      <trkpt lat="49.08583" lon="0.77242">
        <ele>127.51</ele>
        <time>2020-10-29T13:47:45Z</time>
      </trkpt>
      <trkpt lat="49.08601" lon="0.77224">
        <ele>129.92</ele>
        <time>2020-10-29T13:47:58Z</time>
      </trkpt>
      <trkpt lat="49.08619" lon="0.77202">
        <ele>132.32</ele>
        <time>2020-10-29T13:48:12Z</time>
      </trkpt>
      <trkpt lat="49.08621" lon="0.772">
        <ele>132.32</ele>
        <time>2020-10-29T13:48:13Z</time>
      </trkpt>
      <trkpt lat="49.08638" lon="0.77175">
        <ele>134.72</ele>
        <time>2020-10-29T13:48:28Z</time>
      </trkpt>
      <trkpt lat="49.0866" lon="0.77147">
        <ele>137.61</ele>
        <time>2020-10-29T13:48:45Z</time>
      </trkpt>
      <trkpt lat="49.08681" lon="0.77117">
        <ele>140.49</ele>
        <time>2020-10-29T13:49:00Z</time>
      </trkpt>
      <trkpt lat="49.08705" lon="0.77092">
        <ele>141.93</ele>
        <time>2020-10-29T13:49:15Z</time>
      </trkpt>
      <trkpt lat="49.08751" lon="0.77067">
        <ele>143.85</ele>
        <time>2020-10-29T13:49:31Z</time>
      </trkpt>
      <trkpt lat="49.0881" lon="0.77076">
        <ele>144.34</ele>
        <time>2020-10-29T13:49:46Z</time>
      </trkpt>
      <trkpt lat="49.08877" lon="0.77089">
        <ele>144.34</ele>
        <time>2020-10-29T13:50:01Z</time>
      </trkpt>
      <trkpt lat="49.08939" lon="0.77102">
        <ele>144.82</ele>
        <time>2020-10-29T13:50:14Z</time>
      </trkpt>
      <trkpt lat="49.08944" lon="0.77103">
        <ele>144.82</ele>
        <time>2020-10-29T13:50:15Z</time>
      </trkpt>
      <trkpt lat="49.08948" lon="0.77104">
        <ele>144.82</ele>
        <time>2020-10-29T13:50:16Z</time>
      </trkpt>
      <trkpt lat="49.09016" lon="0.7712">
        <ele>145.3</ele>
        <time>2020-10-29T13:50:31Z</time>
      </trkpt>
      <trkpt lat="49.09021" lon="0.77121">
        <ele>145.3</ele>
        <time>2020-10-29T13:50:32Z</time>
      </trkpt>
      <trkpt lat="49.09079" lon="0.77133">
        <ele>146.26</ele>
        <time>2020-10-29T13:50:46Z</time>
      </trkpt>
      <trkpt lat="49.09152" lon="0.77147">
        <ele>147.7</ele>
        <time>2020-10-29T13:51:04Z</time>
      </trkpt>
      <trkpt lat="49.09195" lon="0.77151">
        <ele>147.7</ele>
        <time>2020-10-29T13:51:17Z</time>
      </trkpt>
      <trkpt lat="49.09233" lon="0.77099">
        <ele>145.78</ele>
        <time>2020-10-29T13:51:28Z</time>
      </trkpt>
      <trkpt lat="49.09256" lon="0.77073">
        <ele>145.78</ele>
        <time>2020-10-29T13:51:34Z</time>
      </trkpt>
      <trkpt lat="49.0926" lon="0.77069">
        <ele>145.3</ele>
        <time>2020-10-29T13:51:35Z</time>
      </trkpt>
      <trkpt lat="49.09264" lon="0.77066">
        <ele>145.3</ele>
        <time>2020-10-29T13:51:36Z</time>
      </trkpt>
      <trkpt lat="49.09269" lon="0.77062">
        <ele>145.3</ele>
        <time>2020-10-29T13:51:37Z</time>
      </trkpt>
      <trkpt lat="49.09273" lon="0.77057">
        <ele>145.3</ele>
        <time>2020-10-29T13:51:38Z</time>
      </trkpt>
      <trkpt lat="49.09277" lon="0.77051">
        <ele>144.82</ele>
        <time>2020-10-29T13:51:39Z</time>
      </trkpt>
      <trkpt lat="49.09293" lon="0.77035">
        <ele>142.41</ele>
        <time>2020-10-29T13:51:42Z</time>
      </trkpt>
      <trkpt lat="49.093" lon="0.77032">
        <ele>141.93</ele>
        <time>2020-10-29T13:51:43Z</time>
      </trkpt>
      <trkpt lat="49.09307" lon="0.77031">
        <ele>141.45</ele>
        <time>2020-10-29T13:51:44Z</time>
      </trkpt>
      <trkpt lat="49.09327" lon="0.77032">
        <ele>140.01</ele>
        <time>2020-10-29T13:51:47Z</time>
      </trkpt>
      <trkpt lat="49.09334" lon="0.77034">
        <ele>139.05</ele>
        <time>2020-10-29T13:51:48Z</time>
      </trkpt>
      <trkpt lat="49.0934" lon="0.77037">
        <ele>138.57</ele>
        <time>2020-10-29T13:51:49Z</time>
      </trkpt>
      <trkpt lat="49.09344" lon="0.7704">
        <ele>138.57</ele>
        <time>2020-10-29T13:51:50Z</time>
      </trkpt>
      <trkpt lat="49.09358" lon="0.77047">
        <ele>138.09</ele>
        <time>2020-10-29T13:51:53Z</time>
      </trkpt>
      <trkpt lat="49.09362" lon="0.77048">
        <ele>138.09</ele>
        <time>2020-10-29T13:51:54Z</time>
      </trkpt>
      <trkpt lat="49.09366" lon="0.77049">
        <ele>137.61</ele>
        <time>2020-10-29T13:51:55Z</time>
      </trkpt>
      <trkpt lat="49.0937" lon="0.77048">
        <ele>137.61</ele>
        <time>2020-10-29T13:51:56Z</time>
      </trkpt>
      <trkpt lat="49.09373" lon="0.77046">
        <ele>137.61</ele>
        <time>2020-10-29T13:51:57Z</time>
      </trkpt>
      <trkpt lat="49.09376" lon="0.77041">
        <ele>137.61</ele>
        <time>2020-10-29T13:51:58Z</time>
      </trkpt>
      <trkpt lat="49.09377" lon="0.77036">
        <ele>137.13</ele>
        <time>2020-10-29T13:51:59Z</time>
      </trkpt>
      <trkpt lat="49.09378" lon="0.77033">
        <ele>137.13</ele>
        <time>2020-10-29T13:52:00Z</time>
      </trkpt>
      <trkpt lat="49.09379" lon="0.77027">
        <ele>137.13</ele>
        <time>2020-10-29T13:52:01Z</time>
      </trkpt>
      <trkpt lat="49.09379" lon="0.77022">
        <ele>137.13</ele>
        <time>2020-10-29T13:52:02Z</time>
      </trkpt>
      <trkpt lat="49.09379" lon="0.77017">
        <ele>137.13</ele>
        <time>2020-10-29T13:52:03Z</time>
      </trkpt>
      <trkpt lat="49.09378" lon="0.77011">
        <ele>137.13</ele>
        <time>2020-10-29T13:52:04Z</time>
      </trkpt>
      <trkpt lat="49.09377" lon="0.77007">
        <ele>137.13</ele>
        <time>2020-10-29T13:52:05Z</time>
      </trkpt>
      <trkpt lat="49.09376" lon="0.77002">
        <ele>138.57</ele>
        <time>2020-10-29T13:52:06Z</time>
      </trkpt>
      <trkpt lat="49.09374" lon="0.76998">
        <ele>138.57</ele>
        <time>2020-10-29T13:52:07Z</time>
      </trkpt>
      <trkpt lat="49.09373" lon="0.76994">
        <ele>138.57</ele>
        <time>2020-10-29T13:52:08Z</time>
      </trkpt>
      <trkpt lat="49.09371" lon="0.76989">
        <ele>139.05</ele>
        <time>2020-10-29T13:52:09Z</time>
      </trkpt>
      <trkpt lat="49.09374" lon="0.76957">
        <ele>141.93</ele>
        <time>2020-10-29T13:52:16Z</time>
      </trkpt>
      <trkpt lat="49.09398" lon="0.76911">
        <ele>145.3</ele>
        <time>2020-10-29T13:52:28Z</time>
      </trkpt>
      <trkpt lat="49.09426" lon="0.7686">
        <ele>146.74</ele>
        <time>2020-10-29T13:52:44Z</time>
      </trkpt>
      <trkpt lat="49.09476" lon="0.76812">
        <ele>148.66</ele>
        <time>2020-10-29T13:53:01Z</time>
      </trkpt>
      <trkpt lat="49.09528" lon="0.76776">
        <ele>151.06</ele>
        <time>2020-10-29T13:53:19Z</time>
      </trkpt>
      <trkpt lat="49.09587" lon="0.76737">
        <ele>152.03</ele>
        <time>2020-10-29T13:53:36Z</time>
      </trkpt>
      <trkpt lat="49.0964" lon="0.76693">
        <ele>152.51</ele>
        <time>2020-10-29T13:53:51Z</time>
      </trkpt>
      <trkpt lat="49.09698" lon="0.76649">
        <ele>150.1</ele>
        <time>2020-10-29T13:54:04Z</time>
      </trkpt>
      <trkpt lat="49.09706" lon="0.76642">
        <ele>150.1</ele>
        <time>2020-10-29T13:54:06Z</time>
      </trkpt>
      <trkpt lat="49.09753" lon="0.76588">
        <ele>150.1</ele>
        <time>2020-10-29T13:54:18Z</time>
      </trkpt>
      <trkpt lat="49.09757" lon="0.76583">
        <ele>149.62</ele>
        <time>2020-10-29T13:54:19Z</time>
      </trkpt>
      <trkpt lat="49.09768" lon="0.7657">
        <ele>149.62</ele>
        <time>2020-10-29T13:54:22Z</time>
      </trkpt>
      <trkpt lat="49.09771" lon="0.76565">
        <ele>149.62</ele>
        <time>2020-10-29T13:54:23Z</time>
      </trkpt>
      <trkpt lat="49.09806" lon="0.76528">
        <ele>149.62</ele>
        <time>2020-10-29T13:54:31Z</time>
      </trkpt>
      <trkpt lat="49.0981" lon="0.76524">
        <ele>149.62</ele>
        <time>2020-10-29T13:54:32Z</time>
      </trkpt>
      <trkpt lat="49.09813" lon="0.76519">
        <ele>149.62</ele>
        <time>2020-10-29T13:54:33Z</time>
      </trkpt>
      <trkpt lat="49.09817" lon="0.76514">
        <ele>149.62</ele>
        <time>2020-10-29T13:54:34Z</time>
      </trkpt>
      <trkpt lat="49.09821" lon="0.7651">
        <ele>149.62</ele>
        <time>2020-10-29T13:54:35Z</time>
      </trkpt>
      <trkpt lat="49.09825" lon="0.76505">
        <ele>149.62</ele>
        <time>2020-10-29T13:54:36Z</time>
      </trkpt>
      <trkpt lat="49.09829" lon="0.765">
        <ele>149.62</ele>
        <time>2020-10-29T13:54:37Z</time>
      </trkpt>
      <trkpt lat="49.09865" lon="0.76455">
        <ele>149.62</ele>
        <time>2020-10-29T13:54:48Z</time>
      </trkpt>
      <trkpt lat="49.0991" lon="0.76398">
        <ele>150.1</ele>
        <time>2020-10-29T13:55:01Z</time>
      </trkpt>
      <trkpt lat="49.09971" lon="0.76333">
        <ele>150.1</ele>
        <time>2020-10-29T13:55:17Z</time>
      </trkpt>
      <trkpt lat="49.10013" lon="0.76299">
        <ele>150.1</ele>
        <time>2020-10-29T13:55:30Z</time>
      </trkpt>
      <trkpt lat="49.10048" lon="0.76265">
        <ele>150.1</ele>
        <time>2020-10-29T13:55:40Z</time>
      </trkpt>
      <trkpt lat="49.10094" lon="0.76227">
        <ele>150.1</ele>
        <time>2020-10-29T13:55:52Z</time>
      </trkpt>
      <trkpt lat="49.10127" lon="0.76198">
        <ele>150.1</ele>
        <time>2020-10-29T13:56:04Z</time>
      </trkpt>
      <trkpt lat="49.10135" lon="0.76191">
        <ele>150.1</ele>
        <time>2020-10-29T13:56:16Z</time>
      </trkpt>
      <trkpt lat="49.10134" lon="0.76193">
        <ele>150.1</ele>
        <time>2020-10-29T13:56:35Z</time>
      </trkpt>
      <trkpt lat="49.10141" lon="0.76186">
        <ele>150.1</ele>
        <time>2020-10-29T13:56:52Z</time>
      </trkpt>
      <trkpt lat="49.10171" lon="0.7617">
        <ele>150.1</ele>
        <time>2020-10-29T13:57:04Z</time>
      </trkpt>
      <trkpt lat="49.10182" lon="0.76165">
        <ele>150.1</ele>
        <time>2020-10-29T13:57:07Z</time>
      </trkpt>
      <trkpt lat="49.10186" lon="0.76162">
        <ele>150.1</ele>
        <time>2020-10-29T13:57:08Z</time>
      </trkpt>
      <trkpt lat="49.10256" lon="0.76101">
        <ele>149.14</ele>
        <time>2020-10-29T13:57:23Z</time>
      </trkpt>
      <trkpt lat="49.10343" lon="0.76019">
        <ele>147.7</ele>
        <time>2020-10-29T13:57:39Z</time>
      </trkpt>
      <trkpt lat="49.10386" lon="0.75977">
        <ele>148.66</ele>
        <time>2020-10-29T13:57:49Z</time>
      </trkpt>
      <trkpt lat="49.10448" lon="0.75931">
        <ele>149.14</ele>
        <time>2020-10-29T13:58:06Z</time>
      </trkpt>
      <trkpt lat="49.10472" lon="0.75981">
        <ele>149.14</ele>
        <time>2020-10-29T13:58:16Z</time>
      </trkpt>
      <trkpt lat="49.10484" lon="0.76003">
        <ele>149.14</ele>
        <time>2020-10-29T13:58:20Z</time>
      </trkpt>
      <trkpt lat="49.10513" lon="0.76044">
        <ele>149.14</ele>
        <time>2020-10-29T13:58:30Z</time>
      </trkpt>
      <trkpt lat="49.10522" lon="0.76084">
        <ele>149.14</ele>
        <time>2020-10-29T13:58:37Z</time>
      </trkpt>
      <trkpt lat="49.10576" lon="0.76198">
        <ele>150.1</ele>
        <time>2020-10-29T13:59:00Z</time>
      </trkpt>
      <trkpt lat="49.10589" lon="0.76224">
        <ele>150.58</ele>
        <time>2020-10-29T13:59:06Z</time>
      </trkpt>
      <trkpt lat="49.10591" lon="0.76225">
        <ele>150.58</ele>
        <time>2020-10-29T13:59:07Z</time>
      </trkpt>
      <trkpt lat="49.10594" lon="0.76225">
        <ele>150.58</ele>
        <time>2020-10-29T13:59:08Z</time>
      </trkpt>
      <trkpt lat="49.10596" lon="0.76224">
        <ele>150.58</ele>
        <time>2020-10-29T13:59:09Z</time>
      </trkpt>
      <trkpt lat="49.10599" lon="0.76221">
        <ele>151.06</ele>
        <time>2020-10-29T13:59:10Z</time>
      </trkpt>
      <trkpt lat="49.10602" lon="0.76218">
        <ele>151.06</ele>
        <time>2020-10-29T13:59:11Z</time>
      </trkpt>
      <trkpt lat="49.10676" lon="0.76148">
        <ele>151.06</ele>
        <time>2020-10-29T13:59:28Z</time>
      </trkpt>
      <trkpt lat="49.1077" lon="0.76039">
        <ele>151.06</ele>
        <time>2020-10-29T13:59:47Z</time>
      </trkpt>
      <trkpt lat="49.10841" lon="0.75936">
        <ele>150.58</ele>
        <time>2020-10-29T14:00:03Z</time>
      </trkpt>
      <trkpt lat="49.10876" lon="0.75893">
        <ele>149.62</ele>
        <time>2020-10-29T14:00:10Z</time>
      </trkpt>
      <trkpt lat="49.10959" lon="0.75805">
        <ele>149.62</ele>
        <time>2020-10-29T14:00:28Z</time>
      </trkpt>
      <trkpt lat="49.10961" lon="0.75802">
        <ele>149.62</ele>
        <time>2020-10-29T14:00:29Z</time>
      </trkpt>
      <trkpt lat="49.1096" lon="0.75797">
        <ele>149.62</ele>
        <time>2020-10-29T14:00:30Z</time>
      </trkpt>
      <trkpt lat="49.10958" lon="0.75793">
        <ele>148.66</ele>
        <time>2020-10-29T14:00:31Z</time>
      </trkpt>
      <trkpt lat="49.10955" lon="0.7579">
        <ele>148.66</ele>
        <time>2020-10-29T14:00:32Z</time>
      </trkpt>
      <trkpt lat="49.10952" lon="0.75788">
        <ele>148.66</ele>
        <time>2020-10-29T14:00:33Z</time>
      </trkpt>
      <trkpt lat="49.10904" lon="0.75761">
        <ele>146.74</ele>
        <time>2020-10-29T14:00:46Z</time>
      </trkpt>
      <trkpt lat="49.10882" lon="0.75747">
        <ele>146.26</ele>
        <time>2020-10-29T14:00:52Z</time>
      </trkpt>
      <trkpt lat="49.10879" lon="0.75745">
        <ele>146.26</ele>
        <time>2020-10-29T14:00:53Z</time>
      </trkpt>
      <trkpt lat="49.10875" lon="0.75743">
        <ele>146.26</ele>
        <time>2020-10-29T14:00:54Z</time>
      </trkpt>
      <trkpt lat="49.10856" lon="0.7573">
        <ele>145.78</ele>
        <time>2020-10-29T14:00:59Z</time>
      </trkpt>
      <trkpt lat="49.10852" lon="0.75727">
        <ele>145.78</ele>
        <time>2020-10-29T14:01:00Z</time>
      </trkpt>
      <trkpt lat="49.10848" lon="0.75725">
        <ele>145.78</ele>
        <time>2020-10-29T14:01:01Z</time>
      </trkpt>
      <trkpt lat="49.10844" lon="0.75723">
        <ele>145.78</ele>
        <time>2020-10-29T14:01:02Z</time>
      </trkpt>
      <trkpt lat="49.1084" lon="0.7572">
        <ele>145.78</ele>
        <time>2020-10-29T14:01:03Z</time>
      </trkpt>
      <trkpt lat="49.10836" lon="0.75717">
        <ele>145.78</ele>
        <time>2020-10-29T14:01:04Z</time>
      </trkpt>
      <trkpt lat="49.10832" lon="0.75715">
        <ele>145.78</ele>
        <time>2020-10-29T14:01:05Z</time>
      </trkpt>
      <trkpt lat="49.10829" lon="0.75713">
        <ele>145.78</ele>
        <time>2020-10-29T14:01:06Z</time>
      </trkpt>
      <trkpt lat="49.10826" lon="0.75711">
        <ele>145.78</ele>
        <time>2020-10-29T14:01:07Z</time>
      </trkpt>
      <trkpt lat="49.10822" lon="0.75709">
        <ele>145.78</ele>
        <time>2020-10-29T14:01:08Z</time>
      </trkpt>
      <trkpt lat="49.10819" lon="0.75707">
        <ele>145.78</ele>
        <time>2020-10-29T14:01:09Z</time>
      </trkpt>
      <trkpt lat="49.10815" lon="0.75704">
        <ele>145.78</ele>
        <time>2020-10-29T14:01:10Z</time>
      </trkpt>
      <trkpt lat="49.10812" lon="0.75702">
        <ele>145.78</ele>
        <time>2020-10-29T14:01:11Z</time>
      </trkpt>
      <trkpt lat="49.10804" lon="0.75696">
        <ele>145.78</ele>
        <time>2020-10-29T14:01:13Z</time>
      </trkpt>
      <trkpt lat="49.10801" lon="0.75692">
        <ele>145.78</ele>
        <time>2020-10-29T14:01:14Z</time>
      </trkpt>
      <trkpt lat="49.10798" lon="0.75687">
        <ele>145.78</ele>
        <time>2020-10-29T14:01:15Z</time>
      </trkpt>
      <trkpt lat="49.1078" lon="0.75655">
        <ele>145.78</ele>
        <time>2020-10-29T14:01:21Z</time>
      </trkpt>
      <trkpt lat="49.10777" lon="0.7565">
        <ele>145.78</ele>
        <time>2020-10-29T14:01:22Z</time>
      </trkpt>
      <trkpt lat="49.10761" lon="0.75623">
        <ele>145.78</ele>
        <time>2020-10-29T14:01:30Z</time>
      </trkpt>
      <trkpt lat="49.10762" lon="0.7562">
        <ele>145.78</ele>
        <time>2020-10-29T14:01:31Z</time>
      </trkpt>
      <trkpt lat="49.10763" lon="0.75618">
        <ele>147.22</ele>
        <time>2020-10-29T14:01:32Z</time>
      </trkpt>
      <trkpt lat="49.10799" lon="0.75593">
        <ele>147.22</ele>
        <time>2020-10-29T14:01:44Z</time>
      </trkpt>
      <trkpt lat="49.10856" lon="0.75553">
        <ele>145.78</ele>
        <time>2020-10-29T14:01:59Z</time>
      </trkpt>
      <trkpt lat="49.10903" lon="0.75521">
        <ele>144.34</ele>
        <time>2020-10-29T14:02:09Z</time>
      </trkpt>
      <trkpt lat="49.10908" lon="0.75518">
        <ele>144.34</ele>
        <time>2020-10-29T14:02:10Z</time>
      </trkpt>
      <trkpt lat="49.10912" lon="0.75515">
        <ele>144.34</ele>
        <time>2020-10-29T14:02:11Z</time>
      </trkpt>
      <trkpt lat="49.10979" lon="0.7547">
        <ele>142.41</ele>
        <time>2020-10-29T14:02:28Z</time>
      </trkpt>
      <trkpt lat="49.10985" lon="0.75468">
        <ele>142.41</ele>
        <time>2020-10-29T14:02:31Z</time>
      </trkpt>
      <trkpt lat="49.10988" lon="0.75465">
        <ele>142.41</ele>
        <time>2020-10-29T14:02:32Z</time>
      </trkpt>
      <trkpt lat="49.10989" lon="0.75463">
        <ele>142.41</ele>
        <time>2020-10-29T14:02:33Z</time>
      </trkpt>
      <trkpt lat="49.10992" lon="0.7546">
        <ele>142.41</ele>
        <time>2020-10-29T14:02:34Z</time>
      </trkpt>
      <trkpt lat="49.10996" lon="0.75458">
        <ele>142.41</ele>
        <time>2020-10-29T14:02:35Z</time>
      </trkpt>
      <trkpt lat="49.11041" lon="0.75434">
        <ele>143.85</ele>
        <time>2020-10-29T14:02:44Z</time>
      </trkpt>
      <trkpt lat="49.11123" lon="0.75401">
        <ele>146.26</ele>
        <time>2020-10-29T14:03:00Z</time>
      </trkpt>
      <trkpt lat="49.11189" lon="0.75378">
        <ele>146.74</ele>
        <time>2020-10-29T14:03:14Z</time>
      </trkpt>
      <trkpt lat="49.11212" lon="0.75373">
        <ele>146.74</ele>
        <time>2020-10-29T14:03:19Z</time>
      </trkpt>
      <trkpt lat="49.11216" lon="0.75372">
        <ele>146.74</ele>
        <time>2020-10-29T14:03:20Z</time>
      </trkpt>
      <trkpt lat="49.11267" lon="0.75373">
        <ele>146.74</ele>
        <time>2020-10-29T14:03:30Z</time>
      </trkpt>
      <trkpt lat="49.11289" lon="0.75374">
        <ele>145.3</ele>
        <time>2020-10-29T14:03:34Z</time>
      </trkpt>
      <trkpt lat="49.11312" lon="0.75376">
        <ele>144.34</ele>
        <time>2020-10-29T14:03:38Z</time>
      </trkpt>
      <trkpt lat="49.1139" lon="0.7539">
        <ele>141.45</ele>
        <time>2020-10-29T14:03:51Z</time>
      </trkpt>
      <trkpt lat="49.11407" lon="0.75394">
        <ele>140.97</ele>
        <time>2020-10-29T14:03:54Z</time>
      </trkpt>
      <trkpt lat="49.1143" lon="0.75394">
        <ele>140.97</ele>
        <time>2020-10-29T14:03:59Z</time>
      </trkpt>
      <trkpt lat="49.11435" lon="0.75394">
        <ele>140.97</ele>
        <time>2020-10-29T14:04:00Z</time>
      </trkpt>
      <trkpt lat="49.1144" lon="0.75394">
        <ele>140.49</ele>
        <time>2020-10-29T14:04:01Z</time>
      </trkpt>
      <trkpt lat="49.11444" lon="0.75394">
        <ele>140.49</ele>
        <time>2020-10-29T14:04:02Z</time>
      </trkpt>
      <trkpt lat="49.11449" lon="0.75395">
        <ele>140.49</ele>
        <time>2020-10-29T14:04:03Z</time>
      </trkpt>
      <trkpt lat="49.11454" lon="0.75395">
        <ele>140.97</ele>
        <time>2020-10-29T14:04:04Z</time>
      </trkpt>
      <trkpt lat="49.11496" lon="0.75393">
        <ele>140.97</ele>
        <time>2020-10-29T14:04:13Z</time>
      </trkpt>
      <trkpt lat="49.11531" lon="0.75383">
        <ele>141.93</ele>
        <time>2020-10-29T14:04:21Z</time>
      </trkpt>
      <trkpt lat="49.11541" lon="0.7538">
        <ele>141.93</ele>
        <time>2020-10-29T14:04:23Z</time>
      </trkpt>
      <trkpt lat="49.1159" lon="0.75361">
        <ele>142.89</ele>
        <time>2020-10-29T14:04:33Z</time>
      </trkpt>
      <trkpt lat="49.11594" lon="0.75359">
        <ele>143.37</ele>
        <time>2020-10-29T14:04:34Z</time>
      </trkpt>
      <trkpt lat="49.11599" lon="0.75358">
        <ele>143.37</ele>
        <time>2020-10-29T14:04:35Z</time>
      </trkpt>
      <trkpt lat="49.11648" lon="0.75338">
        <ele>143.37</ele>
        <time>2020-10-29T14:04:48Z</time>
      </trkpt>
      <trkpt lat="49.1169" lon="0.75322">
        <ele>143.37</ele>
        <time>2020-10-29T14:05:00Z</time>
      </trkpt>
      <trkpt lat="49.11735" lon="0.75302">
        <ele>143.37</ele>
        <time>2020-10-29T14:05:12Z</time>
      </trkpt>
      <trkpt lat="49.11741" lon="0.75297">
        <ele>143.37</ele>
        <time>2020-10-29T14:05:14Z</time>
      </trkpt>
      <trkpt lat="49.11742" lon="0.75293">
        <ele>143.37</ele>
        <time>2020-10-29T14:05:15Z</time>
      </trkpt>
      <trkpt lat="49.11743" lon="0.75287">
        <ele>142.41</ele>
        <time>2020-10-29T14:05:16Z</time>
      </trkpt>
      <trkpt lat="49.11742" lon="0.75283">
        <ele>142.41</ele>
        <time>2020-10-29T14:05:17Z</time>
      </trkpt>
      <trkpt lat="49.11742" lon="0.75279">
        <ele>142.41</ele>
        <time>2020-10-29T14:05:18Z</time>
      </trkpt>
      <trkpt lat="49.11743" lon="0.75274">
        <ele>142.41</ele>
        <time>2020-10-29T14:05:19Z</time>
      </trkpt>
      <trkpt lat="49.11743" lon="0.7527">
        <ele>142.41</ele>
        <time>2020-10-29T14:05:20Z</time>
      </trkpt>
      <trkpt lat="49.11745" lon="0.75262">
        <ele>141.93</ele>
        <time>2020-10-29T14:05:22Z</time>
      </trkpt>
      <trkpt lat="49.11758" lon="0.7522">
        <ele>140.97</ele>
        <time>2020-10-29T14:05:31Z</time>
      </trkpt>
      <trkpt lat="49.1176" lon="0.75216">
        <ele>140.49</ele>
        <time>2020-10-29T14:05:32Z</time>
      </trkpt>
      <trkpt lat="49.11778" lon="0.75159">
        <ele>139.05</ele>
        <time>2020-10-29T14:05:43Z</time>
      </trkpt>
      <trkpt lat="49.11792" lon="0.75106">
        <ele>135.2</ele>
        <time>2020-10-29T14:05:54Z</time>
      </trkpt>
      <trkpt lat="49.11796" lon="0.75071">
        <ele>132.32</ele>
        <time>2020-10-29T14:06:01Z</time>
      </trkpt>
      <trkpt lat="49.11801" lon="0.7504">
        <ele>128.95</ele>
        <time>2020-10-29T14:06:08Z</time>
      </trkpt>
      <trkpt lat="49.11803" lon="0.75018">
        <ele>127.03</ele>
        <time>2020-10-29T14:06:12Z</time>
      </trkpt>
      <trkpt lat="49.11805" lon="0.74998">
        <ele>124.63</ele>
        <time>2020-10-29T14:06:17Z</time>
      </trkpt>
      <trkpt lat="49.11806" lon="0.74993">
        <ele>124.15</ele>
        <time>2020-10-29T14:06:18Z</time>
      </trkpt>
      <trkpt lat="49.11806" lon="0.74989">
        <ele>123.67</ele>
        <time>2020-10-29T14:06:19Z</time>
      </trkpt>
      <trkpt lat="49.11807" lon="0.7498">
        <ele>122.22</ele>
        <time>2020-10-29T14:06:21Z</time>
      </trkpt>
      <trkpt lat="49.11807" lon="0.74975">
        <ele>121.74</ele>
        <time>2020-10-29T14:06:22Z</time>
      </trkpt>
      <trkpt lat="49.11808" lon="0.7497">
        <ele>121.26</ele>
        <time>2020-10-29T14:06:23Z</time>
      </trkpt>
      <trkpt lat="49.11811" lon="0.74957">
        <ele>118.86</ele>
        <time>2020-10-29T14:06:27Z</time>
      </trkpt>
      <trkpt lat="49.11811" lon="0.74954">
        <ele>118.38</ele>
        <time>2020-10-29T14:06:28Z</time>
      </trkpt>
      <trkpt lat="49.1181" lon="0.74926">
        <ele>115.01</ele>
        <time>2020-10-29T14:06:36Z</time>
      </trkpt>
      <trkpt lat="49.11809" lon="0.7492">
        <ele>114.53</ele>
        <time>2020-10-29T14:06:38Z</time>
      </trkpt>
      <trkpt lat="49.11809" lon="0.74914">
        <ele>114.05</ele>
        <time>2020-10-29T14:06:40Z</time>
      </trkpt>
      <trkpt lat="49.11809" lon="0.74909">
        <ele>114.05</ele>
        <time>2020-10-29T14:06:41Z</time>
      </trkpt>
      <trkpt lat="49.11809" lon="0.74904">
        <ele>113.09</ele>
        <time>2020-10-29T14:06:42Z</time>
      </trkpt>
      <trkpt lat="49.11802" lon="0.74878">
        <ele>112.13</ele>
        <time>2020-10-29T14:06:46Z</time>
      </trkpt>
      <trkpt lat="49.11784" lon="0.74832">
        <ele>108.77</ele>
        <time>2020-10-29T14:06:52Z</time>
      </trkpt>
      <trkpt lat="49.11767" lon="0.74795">
        <ele>107.32</ele>
        <time>2020-10-29T14:06:56Z</time>
      </trkpt>
      <trkpt lat="49.11731" lon="0.74711">
        <ele>103.96</ele>
        <time>2020-10-29T14:07:04Z</time>
      </trkpt>
      <trkpt lat="49.11727" lon="0.74699">
        <ele>103.96</ele>
        <time>2020-10-29T14:07:05Z</time>
      </trkpt>
      <trkpt lat="49.11724" lon="0.74687">
        <ele>103.48</ele>
        <time>2020-10-29T14:07:06Z</time>
      </trkpt>
      <trkpt lat="49.11719" lon="0.74662">
        <ele>103</ele>
        <time>2020-10-29T14:07:08Z</time>
      </trkpt>
      <trkpt lat="49.11718" lon="0.74651">
        <ele>103</ele>
        <time>2020-10-29T14:07:09Z</time>
      </trkpt>
      <trkpt lat="49.11717" lon="0.74638">
        <ele>102.52</ele>
        <time>2020-10-29T14:07:10Z</time>
      </trkpt>
      <trkpt lat="49.11718" lon="0.74626">
        <ele>102.52</ele>
        <time>2020-10-29T14:07:11Z</time>
      </trkpt>
      <trkpt lat="49.1172" lon="0.74615">
        <ele>102.52</ele>
        <time>2020-10-29T14:07:12Z</time>
      </trkpt>
      <trkpt lat="49.11723" lon="0.74603">
        <ele>101.56</ele>
        <time>2020-10-29T14:07:13Z</time>
      </trkpt>
      <trkpt lat="49.11726" lon="0.74592">
        <ele>101.56</ele>
        <time>2020-10-29T14:07:14Z</time>
      </trkpt>
      <trkpt lat="49.11729" lon="0.74582">
        <ele>100.6</ele>
        <time>2020-10-29T14:07:15Z</time>
      </trkpt>
      <trkpt lat="49.11734" lon="0.74572">
        <ele>100.6</ele>
        <time>2020-10-29T14:07:16Z</time>
      </trkpt>
      <trkpt lat="49.11738" lon="0.74562">
        <ele>99.63</ele>
        <time>2020-10-29T14:07:17Z</time>
      </trkpt>
      <trkpt lat="49.11766" lon="0.74482">
        <ele>96.75</ele>
        <time>2020-10-29T14:07:24Z</time>
      </trkpt>
      <trkpt lat="49.11795" lon="0.74398">
        <ele>93.39</ele>
        <time>2020-10-29T14:07:31Z</time>
      </trkpt>
      <trkpt lat="49.11816" lon="0.7428">
        <ele>90.02</ele>
        <time>2020-10-29T14:07:40Z</time>
      </trkpt>
      <trkpt lat="49.11817" lon="0.74182">
        <ele>87.14</ele>
        <time>2020-10-29T14:07:47Z</time>
      </trkpt>
      <trkpt lat="49.11817" lon="0.74168">
        <ele>86.18</ele>
        <time>2020-10-29T14:07:48Z</time>
      </trkpt>
      <trkpt lat="49.11818" lon="0.74154">
        <ele>86.18</ele>
        <time>2020-10-29T14:07:49Z</time>
      </trkpt>
      <trkpt lat="49.11828" lon="0.74075">
        <ele>82.81</ele>
        <time>2020-10-29T14:07:55Z</time>
      </trkpt>
      <trkpt lat="49.1183" lon="0.74062">
        <ele>82.81</ele>
        <time>2020-10-29T14:07:56Z</time>
      </trkpt>
      <trkpt lat="49.11832" lon="0.74006">
        <ele>81.85</ele>
        <time>2020-10-29T14:08:00Z</time>
      </trkpt>
      <trkpt lat="49.11831" lon="0.73992">
        <ele>81.37</ele>
        <time>2020-10-29T14:08:01Z</time>
      </trkpt>
      <trkpt lat="49.11829" lon="0.73978">
        <ele>80.89</ele>
        <time>2020-10-29T14:08:02Z</time>
      </trkpt>
      <trkpt lat="49.11826" lon="0.73965">
        <ele>79.45</ele>
        <time>2020-10-29T14:08:03Z</time>
      </trkpt>
      <trkpt lat="49.11822" lon="0.73953">
        <ele>78.97</ele>
        <time>2020-10-29T14:08:04Z</time>
      </trkpt>
      <trkpt lat="49.11818" lon="0.73941">
        <ele>78.48</ele>
        <time>2020-10-29T14:08:05Z</time>
      </trkpt>
      <trkpt lat="49.11814" lon="0.7393">
        <ele>78</ele>
        <time>2020-10-29T14:08:06Z</time>
      </trkpt>
      <trkpt lat="49.11805" lon="0.7391">
        <ele>77.04</ele>
        <time>2020-10-29T14:08:08Z</time>
      </trkpt>
      <trkpt lat="49.11796" lon="0.73885">
        <ele>77.04</ele>
        <time>2020-10-29T14:08:11Z</time>
      </trkpt>
      <trkpt lat="49.11795" lon="0.73878">
        <ele>77.04</ele>
        <time>2020-10-29T14:08:12Z</time>
      </trkpt>
      <trkpt lat="49.11795" lon="0.73871">
        <ele>76.56</ele>
        <time>2020-10-29T14:08:13Z</time>
      </trkpt>
      <trkpt lat="49.1181" lon="0.73828">
        <ele>75.6</ele>
        <time>2020-10-29T14:08:22Z</time>
      </trkpt>
      <trkpt lat="49.11818" lon="0.73818">
        <ele>75.6</ele>
        <time>2020-10-29T14:08:24Z</time>
      </trkpt>
      <trkpt lat="49.11889" lon="0.73779">
        <ele>74.16</ele>
        <time>2020-10-29T14:08:37Z</time>
      </trkpt>
      <trkpt lat="49.11897" lon="0.73776">
        <ele>74.16</ele>
        <time>2020-10-29T14:08:39Z</time>
      </trkpt>
      <trkpt lat="49.119" lon="0.73778">
        <ele>73.68</ele>
        <time>2020-10-29T14:08:40Z</time>
      </trkpt>
      <trkpt lat="49.11901" lon="0.73781">
        <ele>73.68</ele>
        <time>2020-10-29T14:08:41Z</time>
      </trkpt>
      <trkpt lat="49.11902" lon="0.73784">
        <ele>73.68</ele>
        <time>2020-10-29T14:08:42Z</time>
      </trkpt>
      <trkpt lat="49.11903" lon="0.73787">
        <ele>73.68</ele>
        <time>2020-10-29T14:08:43Z</time>
      </trkpt>
      <trkpt lat="49.11906" lon="0.73823">
        <ele>75.12</ele>
        <time>2020-10-29T14:08:58Z</time>
      </trkpt>
      <trkpt lat="49.11911" lon="0.73866">
        <ele>78</ele>
        <time>2020-10-29T14:09:14Z</time>
      </trkpt>
      <trkpt lat="49.1192" lon="0.73914">
        <ele>79.93</ele>
        <time>2020-10-29T14:09:32Z</time>
      </trkpt>
      <trkpt lat="49.11922" lon="0.73935">
        <ele>81.85</ele>
        <time>2020-10-29T14:09:41Z</time>
      </trkpt>
      <trkpt lat="49.11922" lon="0.73937">
        <ele>81.85</ele>
        <time>2020-10-29T14:09:42Z</time>
      </trkpt>
      <trkpt lat="49.11922" lon="0.73939">
        <ele>81.85</ele>
        <time>2020-10-29T14:09:43Z</time>
      </trkpt>
      <trkpt lat="49.11922" lon="0.73942">
        <ele>81.85</ele>
        <time>2020-10-29T14:09:44Z</time>
      </trkpt>
      <trkpt lat="49.11922" lon="0.73944">
        <ele>82.33</ele>
        <time>2020-10-29T14:09:45Z</time>
      </trkpt>
      <trkpt lat="49.11922" lon="0.73946">
        <ele>82.33</ele>
        <time>2020-10-29T14:09:46Z</time>
      </trkpt>
      <trkpt lat="49.11923" lon="0.73971">
        <ele>84.25</ele>
        <time>2020-10-29T14:09:58Z</time>
      </trkpt>
      <trkpt lat="49.11923" lon="0.73973">
        <ele>84.25</ele>
        <time>2020-10-29T14:09:59Z</time>
      </trkpt>
      <trkpt lat="49.11923" lon="0.73976">
        <ele>84.25</ele>
        <time>2020-10-29T14:10:00Z</time>
      </trkpt>
      <trkpt lat="49.11923" lon="0.73979">
        <ele>84.25</ele>
        <time>2020-10-29T14:10:01Z</time>
      </trkpt>
      <trkpt lat="49.11923" lon="0.73982">
        <ele>84.25</ele>
        <time>2020-10-29T14:10:02Z</time>
      </trkpt>
      <trkpt lat="49.11923" lon="0.73985">
        <ele>84.73</ele>
        <time>2020-10-29T14:10:03Z</time>
      </trkpt>
      <trkpt lat="49.11923" lon="0.73988">
        <ele>84.73</ele>
        <time>2020-10-29T14:10:04Z</time>
      </trkpt>
      <trkpt lat="49.11922" lon="0.7399">
        <ele>84.73</ele>
        <time>2020-10-29T14:10:05Z</time>
      </trkpt>
      <trkpt lat="49.11921" lon="0.74002">
        <ele>85.69</ele>
        <time>2020-10-29T14:10:10Z</time>
      </trkpt>
      <trkpt lat="49.11921" lon="0.74005">
        <ele>85.69</ele>
        <time>2020-10-29T14:10:11Z</time>
      </trkpt>
      <trkpt lat="49.11921" lon="0.74008">
        <ele>85.69</ele>
        <time>2020-10-29T14:10:12Z</time>
      </trkpt>
      <trkpt lat="49.1192" lon="0.74011">
        <ele>85.69</ele>
        <time>2020-10-29T14:10:13Z</time>
      </trkpt>
      <trkpt lat="49.1192" lon="0.74014">
        <ele>85.69</ele>
        <time>2020-10-29T14:10:14Z</time>
      </trkpt>
      <trkpt lat="49.11918" lon="0.74027">
        <ele>86.66</ele>
        <time>2020-10-29T14:10:19Z</time>
      </trkpt>
      <trkpt lat="49.11918" lon="0.74029">
        <ele>86.66</ele>
        <time>2020-10-29T14:10:20Z</time>
      </trkpt>
      <trkpt lat="49.11918" lon="0.74032">
        <ele>87.14</ele>
        <time>2020-10-29T14:10:21Z</time>
      </trkpt>
      <trkpt lat="49.11918" lon="0.74034">
        <ele>87.14</ele>
        <time>2020-10-29T14:10:22Z</time>
      </trkpt>
      <trkpt lat="49.11918" lon="0.74036">
        <ele>87.14</ele>
        <time>2020-10-29T14:10:23Z</time>
      </trkpt>
      <trkpt lat="49.11925" lon="0.74059">
        <ele>90.02</ele>
        <time>2020-10-29T14:10:36Z</time>
      </trkpt>
      <trkpt lat="49.11936" lon="0.74074">
        <ele>92.9</ele>
        <time>2020-10-29T14:10:48Z</time>
      </trkpt>
      <trkpt lat="49.11953" lon="0.74087">
        <ele>94.83</ele>
        <time>2020-10-29T14:11:05Z</time>
      </trkpt>
      <trkpt lat="49.11973" lon="0.74101">
        <ele>97.23</ele>
        <time>2020-10-29T14:11:22Z</time>
      </trkpt>
      <trkpt lat="49.11989" lon="0.74112">
        <ele>99.63</ele>
        <time>2020-10-29T14:11:35Z</time>
      </trkpt>
      <trkpt lat="49.11996" lon="0.74117">
        <ele>101.08</ele>
        <time>2020-10-29T14:11:42Z</time>
      </trkpt>
      <trkpt lat="49.12016" lon="0.74126">
        <ele>103</ele>
        <time>2020-10-29T14:11:56Z</time>
      </trkpt>
      <trkpt lat="49.12034" lon="0.74134">
        <ele>105.88</ele>
        <time>2020-10-29T14:12:10Z</time>
      </trkpt>
      <trkpt lat="49.1205" lon="0.7414">
        <ele>107.81</ele>
        <time>2020-10-29T14:12:22Z</time>
      </trkpt>
      <trkpt lat="49.12066" lon="0.74144">
        <ele>110.21</ele>
        <time>2020-10-29T14:12:36Z</time>
      </trkpt>
      <trkpt lat="49.12083" lon="0.74153">
        <ele>111.65</ele>
        <time>2020-10-29T14:12:49Z</time>
      </trkpt>
      <trkpt lat="49.12086" lon="0.74154">
        <ele>112.13</ele>
        <time>2020-10-29T14:12:51Z</time>
      </trkpt>
      <trkpt lat="49.12099" lon="0.74169">
        <ele>114.53</ele>
        <time>2020-10-29T14:13:05Z</time>
      </trkpt>
      <trkpt lat="49.12112" lon="0.74187">
        <ele>116.46</ele>
        <time>2020-10-29T14:13:18Z</time>
      </trkpt>
      <trkpt lat="49.12124" lon="0.7421">
        <ele>118.38</ele>
        <time>2020-10-29T14:13:32Z</time>
      </trkpt>
      <trkpt lat="49.12125" lon="0.74214">
        <ele>118.38</ele>
        <time>2020-10-29T14:13:34Z</time>
      </trkpt>
      <trkpt lat="49.12126" lon="0.74215">
        <ele>118.86</ele>
        <time>2020-10-29T14:13:35Z</time>
      </trkpt>
      <trkpt lat="49.12127" lon="0.74217">
        <ele>118.86</ele>
        <time>2020-10-29T14:13:36Z</time>
      </trkpt>
      <trkpt lat="49.12128" lon="0.74219">
        <ele>118.86</ele>
        <time>2020-10-29T14:13:37Z</time>
      </trkpt>
      <trkpt lat="49.12135" lon="0.74244">
        <ele>121.26</ele>
        <time>2020-10-29T14:13:50Z</time>
      </trkpt>
      <trkpt lat="49.12145" lon="0.74269">
        <ele>123.19</ele>
        <time>2020-10-29T14:14:04Z</time>
      </trkpt>
      <trkpt lat="49.12148" lon="0.74274">
        <ele>123.19</ele>
        <time>2020-10-29T14:14:07Z</time>
      </trkpt>
      <trkpt lat="49.12166" lon="0.74294">
        <ele>126.07</ele>
        <time>2020-10-29T14:14:21Z</time>
      </trkpt>
      <trkpt lat="49.12167" lon="0.74296">
        <ele>126.07</ele>
        <time>2020-10-29T14:14:22Z</time>
      </trkpt>
      <trkpt lat="49.12172" lon="0.74301">
        <ele>127.03</ele>
        <time>2020-10-29T14:14:27Z</time>
      </trkpt>
      <trkpt lat="49.12181" lon="0.74312">
        <ele>127.99</ele>
        <time>2020-10-29T14:14:40Z</time>
      </trkpt>
      <trkpt lat="49.12184" lon="0.74316">
        <ele>127.51</ele>
        <time>2020-10-29T14:15:07Z</time>
      </trkpt>
      <trkpt lat="49.12195" lon="0.74329">
        <ele>129.92</ele>
        <time>2020-10-29T14:15:20Z</time>
      </trkpt>
      <trkpt lat="49.12202" lon="0.74337">
        <ele>130.88</ele>
        <time>2020-10-29T14:15:26Z</time>
      </trkpt>
      <trkpt lat="49.12204" lon="0.74338">
        <ele>130.88</ele>
        <time>2020-10-29T14:15:27Z</time>
      </trkpt>
      <trkpt lat="49.12213" lon="0.74344">
        <ele>131.84</ele>
        <time>2020-10-29T14:15:33Z</time>
      </trkpt>
      <trkpt lat="49.12214" lon="0.74345">
        <ele>131.84</ele>
        <time>2020-10-29T14:15:34Z</time>
      </trkpt>
      <trkpt lat="49.12216" lon="0.74346">
        <ele>132.32</ele>
        <time>2020-10-29T14:15:35Z</time>
      </trkpt>
      <trkpt lat="49.12241" lon="0.74349">
        <ele>135.68</ele>
        <time>2020-10-29T14:15:51Z</time>
      </trkpt>
      <trkpt lat="49.12255" lon="0.74348">
        <ele>136.16</ele>
        <time>2020-10-29T14:16:01Z</time>
      </trkpt>
      <trkpt lat="49.12259" lon="0.74341">
        <ele>136.16</ele>
        <time>2020-10-29T14:16:08Z</time>
      </trkpt>
      <trkpt lat="49.12253" lon="0.74311">
        <ele>132.32</ele>
        <time>2020-10-29T14:16:14Z</time>
      </trkpt>
      <trkpt lat="49.12251" lon="0.74302">
        <ele>131.36</ele>
        <time>2020-10-29T14:16:15Z</time>
      </trkpt>
      <trkpt lat="49.12245" lon="0.74272">
        <ele>127.51</ele>
        <time>2020-10-29T14:16:18Z</time>
      </trkpt>
      <trkpt lat="49.12238" lon="0.74242">
        <ele>124.15</ele>
        <time>2020-10-29T14:16:21Z</time>
      </trkpt>
      <trkpt lat="49.12231" lon="0.74207">
        <ele>120.3</ele>
        <time>2020-10-29T14:16:24Z</time>
      </trkpt>
      <trkpt lat="49.12221" lon="0.74166">
        <ele>116.94</ele>
        <time>2020-10-29T14:16:28Z</time>
      </trkpt>
      <trkpt lat="49.12213" lon="0.74141">
        <ele>113.57</ele>
        <time>2020-10-29T14:16:31Z</time>
      </trkpt>
      <trkpt lat="49.12204" lon="0.74118">
        <ele>110.21</ele>
        <time>2020-10-29T14:16:34Z</time>
      </trkpt>
      <trkpt lat="49.12202" lon="0.74111">
        <ele>109.25</ele>
        <time>2020-10-29T14:16:35Z</time>
      </trkpt>
      <trkpt lat="49.12201" lon="0.74101">
        <ele>107.81</ele>
        <time>2020-10-29T14:16:36Z</time>
      </trkpt>
      <trkpt lat="49.12201" lon="0.74092">
        <ele>106.84</ele>
        <time>2020-10-29T14:16:37Z</time>
      </trkpt>
      <trkpt lat="49.12202" lon="0.74082">
        <ele>105.4</ele>
        <time>2020-10-29T14:16:38Z</time>
      </trkpt>
      <trkpt lat="49.12204" lon="0.74073">
        <ele>103.96</ele>
        <time>2020-10-29T14:16:39Z</time>
      </trkpt>
      <trkpt lat="49.12208" lon="0.74064">
        <ele>103</ele>
        <time>2020-10-29T14:16:40Z</time>
      </trkpt>
      <trkpt lat="49.12213" lon="0.74057">
        <ele>101.56</ele>
        <time>2020-10-29T14:16:41Z</time>
      </trkpt>
      <trkpt lat="49.1222" lon="0.74052">
        <ele>100.11</ele>
        <time>2020-10-29T14:16:42Z</time>
      </trkpt>
      <trkpt lat="49.12226" lon="0.74048">
        <ele>99.15</ele>
        <time>2020-10-29T14:16:43Z</time>
      </trkpt>
      <trkpt lat="49.12234" lon="0.74045">
        <ele>97.71</ele>
        <time>2020-10-29T14:16:44Z</time>
      </trkpt>
      <trkpt lat="49.12242" lon="0.7404">
        <ele>96.27</ele>
        <time>2020-10-29T14:16:45Z</time>
      </trkpt>
      <trkpt lat="49.12249" lon="0.74034">
        <ele>95.31</ele>
        <time>2020-10-29T14:16:46Z</time>
      </trkpt>
      <trkpt lat="49.12255" lon="0.74026">
        <ele>93.87</ele>
        <time>2020-10-29T14:16:47Z</time>
      </trkpt>
      <trkpt lat="49.12262" lon="0.74015">
        <ele>92.9</ele>
        <time>2020-10-29T14:16:48Z</time>
      </trkpt>
      <trkpt lat="49.12267" lon="0.74005">
        <ele>91.46</ele>
        <time>2020-10-29T14:16:49Z</time>
      </trkpt>
      <trkpt lat="49.12287" lon="0.73972">
        <ele>88.1</ele>
        <time>2020-10-29T14:16:53Z</time>
      </trkpt>
      <trkpt lat="49.12308" lon="0.73939">
        <ele>84.73</ele>
        <time>2020-10-29T14:16:57Z</time>
      </trkpt>
      <trkpt lat="49.12314" lon="0.73931">
        <ele>83.77</ele>
        <time>2020-10-29T14:16:58Z</time>
      </trkpt>
      <trkpt lat="49.12321" lon="0.73924">
        <ele>82.81</ele>
        <time>2020-10-29T14:16:59Z</time>
      </trkpt>
      <trkpt lat="49.12328" lon="0.73919">
        <ele>82.33</ele>
        <time>2020-10-29T14:17:00Z</time>
      </trkpt>
      <trkpt lat="49.12337" lon="0.73913">
        <ele>81.37</ele>
        <time>2020-10-29T14:17:01Z</time>
      </trkpt>
      <trkpt lat="49.12344" lon="0.73909">
        <ele>80.89</ele>
        <time>2020-10-29T14:17:02Z</time>
      </trkpt>
      <trkpt lat="49.12374" lon="0.73885">
        <ele>78</ele>
        <time>2020-10-29T14:17:06Z</time>
      </trkpt>
      <trkpt lat="49.1238" lon="0.73876">
        <ele>77.52</ele>
        <time>2020-10-29T14:17:07Z</time>
      </trkpt>
      <trkpt lat="49.12386" lon="0.73865">
        <ele>77.04</ele>
        <time>2020-10-29T14:17:08Z</time>
      </trkpt>
      <trkpt lat="49.1239" lon="0.73854">
        <ele>76.56</ele>
        <time>2020-10-29T14:17:09Z</time>
      </trkpt>
      <trkpt lat="49.12393" lon="0.7384">
        <ele>75.6</ele>
        <time>2020-10-29T14:17:10Z</time>
      </trkpt>
      <trkpt lat="49.12394" lon="0.73826">
        <ele>74.64</ele>
        <time>2020-10-29T14:17:11Z</time>
      </trkpt>
      <trkpt lat="49.12395" lon="0.73815">
        <ele>74.64</ele>
        <time>2020-10-29T14:17:12Z</time>
      </trkpt>
      <trkpt lat="49.12395" lon="0.73807">
        <ele>74.64</ele>
        <time>2020-10-29T14:17:13Z</time>
      </trkpt>
      <trkpt lat="49.12395" lon="0.738">
        <ele>74.64</ele>
        <time>2020-10-29T14:17:14Z</time>
      </trkpt>
      <trkpt lat="49.12393" lon="0.73756">
        <ele>73.2</ele>
        <time>2020-10-29T14:17:20Z</time>
      </trkpt>
      <trkpt lat="49.12393" lon="0.7374">
        <ele>73.2</ele>
        <time>2020-10-29T14:17:22Z</time>
      </trkpt>
      <trkpt lat="49.12392" lon="0.73718">
        <ele>73.2</ele>
        <time>2020-10-29T14:17:29Z</time>
      </trkpt>
      <trkpt lat="49.12391" lon="0.73656">
        <ele>72.24</ele>
        <time>2020-10-29T14:17:42Z</time>
      </trkpt>
      <trkpt lat="49.1239" lon="0.7364">
        <ele>71.76</ele>
        <time>2020-10-29T14:17:45Z</time>
      </trkpt>
      <trkpt lat="49.12388" lon="0.73636">
        <ele>71.76</ele>
        <time>2020-10-29T14:17:46Z</time>
      </trkpt>
      <trkpt lat="49.12387" lon="0.73632">
        <ele>71.76</ele>
        <time>2020-10-29T14:17:47Z</time>
      </trkpt>
      <trkpt lat="49.12386" lon="0.73627">
        <ele>71.76</ele>
        <time>2020-10-29T14:17:48Z</time>
      </trkpt>
      <trkpt lat="49.12386" lon="0.73622">
        <ele>71.76</ele>
        <time>2020-10-29T14:17:49Z</time>
      </trkpt>
      <trkpt lat="49.12385" lon="0.73618">
        <ele>71.76</ele>
        <time>2020-10-29T14:17:50Z</time>
      </trkpt>
      <trkpt lat="49.12384" lon="0.73614">
        <ele>71.76</ele>
        <time>2020-10-29T14:17:51Z</time>
      </trkpt>
      <trkpt lat="49.12382" lon="0.73612">
        <ele>71.76</ele>
        <time>2020-10-29T14:17:52Z</time>
      </trkpt>
      <trkpt lat="49.12379" lon="0.73611">
        <ele>71.76</ele>
        <time>2020-10-29T14:17:53Z</time>
      </trkpt>
      <trkpt lat="49.12375" lon="0.73612">
        <ele>71.76</ele>
        <time>2020-10-29T14:17:55Z</time>
      </trkpt>
      <trkpt lat="49.12372" lon="0.73613">
        <ele>71.76</ele>
        <time>2020-10-29T14:17:56Z</time>
      </trkpt>
      <trkpt lat="49.1237" lon="0.73613">
        <ele>71.76</ele>
        <time>2020-10-29T14:17:57Z</time>
      </trkpt>
      <trkpt lat="49.12369" lon="0.73612">
        <ele>71.76</ele>
        <time>2020-10-29T14:17:58Z</time>
      </trkpt>
      <trkpt lat="49.12368" lon="0.73611">
        <ele>71.76</ele>
        <time>2020-10-29T14:17:59Z</time>
      </trkpt>
      <trkpt lat="49.12361" lon="0.73605">
        <ele>71.27</ele>
        <time>2020-10-29T14:18:02Z</time>
      </trkpt>
      <trkpt lat="49.12357" lon="0.73605">
        <ele>71.27</ele>
        <time>2020-10-29T14:18:03Z</time>
      </trkpt>
      <trkpt lat="49.12355" lon="0.73606">
        <ele>71.27</ele>
        <time>2020-10-29T14:18:04Z</time>
      </trkpt>
      <trkpt lat="49.12352" lon="0.73607">
        <ele>71.27</ele>
        <time>2020-10-29T14:18:05Z</time>
      </trkpt>
      <trkpt lat="49.12349" lon="0.73609">
        <ele>71.27</ele>
        <time>2020-10-29T14:18:06Z</time>
      </trkpt>
      <trkpt lat="49.12346" lon="0.73611">
        <ele>71.27</ele>
        <time>2020-10-29T14:18:07Z</time>
      </trkpt>
      <trkpt lat="49.12295" lon="0.73627">
        <ele>70.31</ele>
        <time>2020-10-29T14:18:20Z</time>
      </trkpt>
      <trkpt lat="49.12278" lon="0.73631">
        <ele>70.31</ele>
        <time>2020-10-29T14:18:24Z</time>
      </trkpt>
      <trkpt lat="49.12273" lon="0.73631">
        <ele>70.31</ele>
        <time>2020-10-29T14:18:25Z</time>
      </trkpt>
      <trkpt lat="49.12268" lon="0.73633">
        <ele>70.31</ele>
        <time>2020-10-29T14:18:26Z</time>
      </trkpt>
      <trkpt lat="49.12173" lon="0.73668">
        <ele>70.31</ele>
        <time>2020-10-29T14:18:46Z</time>
      </trkpt>
      <trkpt lat="49.12131" lon="0.73684">
        <ele>71.76</ele>
        <time>2020-10-29T14:18:56Z</time>
      </trkpt>
      <trkpt lat="49.12128" lon="0.73681">
        <ele>71.76</ele>
        <time>2020-10-29T14:18:57Z</time>
      </trkpt>
      <trkpt lat="49.12126" lon="0.73678">
        <ele>71.76</ele>
        <time>2020-10-29T14:18:58Z</time>
      </trkpt>
      <trkpt lat="49.12111" lon="0.73625">
        <ele>70.31</ele>
        <time>2020-10-29T14:19:08Z</time>
      </trkpt>
      <trkpt lat="49.12108" lon="0.73618">
        <ele>70.31</ele>
        <time>2020-10-29T14:19:09Z</time>
      </trkpt>
      <trkpt lat="49.12103" lon="0.73605">
        <ele>70.31</ele>
        <time>2020-10-29T14:19:11Z</time>
      </trkpt>
      <trkpt lat="49.12097" lon="0.73593">
        <ele>70.31</ele>
        <time>2020-10-29T14:19:13Z</time>
      </trkpt>
      <trkpt lat="49.12066" lon="0.73524">
        <ele>70.31</ele>
        <time>2020-10-29T14:19:27Z</time>
      </trkpt>
      <trkpt lat="49.12051" lon="0.73464">
        <ele>70.31</ele>
        <time>2020-10-29T14:19:40Z</time>
      </trkpt>
      <trkpt lat="49.12049" lon="0.73448">
        <ele>71.27</ele>
        <time>2020-10-29T14:19:52Z</time>
      </trkpt>
      <trkpt lat="49.12049" lon="0.73441">
        <ele>71.76</ele>
        <time>2020-10-29T14:19:57Z</time>
      </trkpt>
      <trkpt lat="49.12049" lon="0.73439">
        <ele>71.76</ele>
        <time>2020-10-29T14:19:58Z</time>
      </trkpt>
      <trkpt lat="49.12048" lon="0.73403">
        <ele>70.79</ele>
        <time>2020-10-29T14:20:14Z</time>
      </trkpt>
      <trkpt lat="49.12036" lon="0.7331">
        <ele>70.31</ele>
        <time>2020-10-29T14:20:30Z</time>
      </trkpt>
      <trkpt lat="49.12026" lon="0.73275">
        <ele>70.31</ele>
        <time>2020-10-29T14:20:38Z</time>
      </trkpt>
      <trkpt lat="49.12025" lon="0.73275">
        <ele>70.31</ele>
        <time>2020-10-29T14:20:39Z</time>
      </trkpt>
      <trkpt lat="49.12023" lon="0.73275">
        <ele>70.31</ele>
        <time>2020-10-29T14:20:40Z</time>
      </trkpt>
      <trkpt lat="49.12021" lon="0.73277">
        <ele>70.31</ele>
        <time>2020-10-29T14:20:41Z</time>
      </trkpt>
      <trkpt lat="49.1202" lon="0.73278">
        <ele>70.31</ele>
        <time>2020-10-29T14:20:42Z</time>
      </trkpt>
      <trkpt lat="49.12018" lon="0.73279">
        <ele>70.31</ele>
        <time>2020-10-29T14:20:43Z</time>
      </trkpt>
      <trkpt lat="49.12017" lon="0.73281">
        <ele>70.31</ele>
        <time>2020-10-29T14:20:44Z</time>
      </trkpt>
      <trkpt lat="49.12016" lon="0.73282">
        <ele>70.31</ele>
        <time>2020-10-29T14:20:45Z</time>
      </trkpt>
      <trkpt lat="49.11989" lon="0.73297">
        <ele>69.83</ele>
        <time>2020-10-29T14:20:58Z</time>
      </trkpt>
      <trkpt lat="49.11947" lon="0.73302">
        <ele>69.83</ele>
        <time>2020-10-29T14:21:12Z</time>
      </trkpt>
      <trkpt lat="49.11896" lon="0.73309">
        <ele>70.31</ele>
        <time>2020-10-29T14:21:27Z</time>
      </trkpt>
      <trkpt lat="49.11845" lon="0.73309">
        <ele>70.31</ele>
        <time>2020-10-29T14:21:41Z</time>
      </trkpt>
      <trkpt lat="49.11837" lon="0.73309">
        <ele>71.27</ele>
        <time>2020-10-29T14:21:44Z</time>
      </trkpt>
      <trkpt lat="49.11793" lon="0.73314">
        <ele>71.76</ele>
        <time>2020-10-29T14:21:58Z</time>
      </trkpt>
      <trkpt lat="49.11758" lon="0.73319">
        <ele>71.76</ele>
        <time>2020-10-29T14:22:11Z</time>
      </trkpt>
      <trkpt lat="49.11722" lon="0.73315">
        <ele>71.76</ele>
        <time>2020-10-29T14:22:23Z</time>
      </trkpt>
      <trkpt lat="49.11679" lon="0.73314">
        <ele>71.76</ele>
        <time>2020-10-29T14:22:36Z</time>
      </trkpt>
      <trkpt lat="49.11639" lon="0.73323">
        <ele>71.76</ele>
        <time>2020-10-29T14:22:48Z</time>
      </trkpt>
      <trkpt lat="49.11617" lon="0.73329">
        <ele>71.76</ele>
        <time>2020-10-29T14:22:58Z</time>
      </trkpt>
      <trkpt lat="49.11612" lon="0.73326">
        <ele>72.24</ele>
        <time>2020-10-29T14:23:02Z</time>
      </trkpt>
      <trkpt lat="49.11611" lon="0.73324">
        <ele>72.24</ele>
        <time>2020-10-29T14:23:03Z</time>
      </trkpt>
      <trkpt lat="49.1161" lon="0.73322">
        <ele>72.24</ele>
        <time>2020-10-29T14:23:04Z</time>
      </trkpt>
      <trkpt lat="49.1161" lon="0.7332">
        <ele>72.24</ele>
        <time>2020-10-29T14:23:05Z</time>
      </trkpt>
      <trkpt lat="49.1161" lon="0.73317">
        <ele>72.24</ele>
        <time>2020-10-29T14:23:06Z</time>
      </trkpt>
      <trkpt lat="49.11609" lon="0.73313">
        <ele>72.24</ele>
        <time>2020-10-29T14:23:07Z</time>
      </trkpt>
      <trkpt lat="49.11611" lon="0.73243">
        <ele>72.24</ele>
        <time>2020-10-29T14:23:21Z</time>
      </trkpt>
      <trkpt lat="49.11615" lon="0.7319">
        <ele>72.24</ele>
        <time>2020-10-29T14:23:29Z</time>
      </trkpt>
      <trkpt lat="49.11615" lon="0.73183">
        <ele>72.24</ele>
        <time>2020-10-29T14:23:30Z</time>
      </trkpt>
      <trkpt lat="49.11614" lon="0.73176">
        <ele>72.24</ele>
        <time>2020-10-29T14:23:31Z</time>
      </trkpt>
      <trkpt lat="49.11613" lon="0.73169">
        <ele>72.24</ele>
        <time>2020-10-29T14:23:32Z</time>
      </trkpt>
      <trkpt lat="49.11612" lon="0.73161">
        <ele>72.24</ele>
        <time>2020-10-29T14:23:33Z</time>
      </trkpt>
      <trkpt lat="49.11611" lon="0.73154">
        <ele>72.24</ele>
        <time>2020-10-29T14:23:34Z</time>
      </trkpt>
      <trkpt lat="49.11608" lon="0.73146">
        <ele>72.24</ele>
        <time>2020-10-29T14:23:35Z</time>
      </trkpt>
      <trkpt lat="49.11606" lon="0.7314">
        <ele>72.24</ele>
        <time>2020-10-29T14:23:36Z</time>
      </trkpt>
      <trkpt lat="49.11603" lon="0.73133">
        <ele>72.24</ele>
        <time>2020-10-29T14:23:37Z</time>
      </trkpt>
      <trkpt lat="49.11599" lon="0.73127">
        <ele>72.24</ele>
        <time>2020-10-29T14:23:38Z</time>
      </trkpt>
      <trkpt lat="49.11588" lon="0.7311">
        <ele>72.24</ele>
        <time>2020-10-29T14:23:41Z</time>
      </trkpt>
      <trkpt lat="49.11501" lon="0.73003">
        <ele>71.76</ele>
        <time>2020-10-29T14:24:00Z</time>
      </trkpt>
      <trkpt lat="49.11451" lon="0.72934">
        <ele>72.72</ele>
        <time>2020-10-29T14:24:14Z</time>
      </trkpt>
      <trkpt lat="49.11436" lon="0.72917">
        <ele>73.68</ele>
        <time>2020-10-29T14:24:18Z</time>
      </trkpt>
      <trkpt lat="49.11377" lon="0.72869">
        <ele>74.16</ele>
        <time>2020-10-29T14:24:33Z</time>
      </trkpt>
      <trkpt lat="49.11299" lon="0.72811">
        <ele>74.16</ele>
        <time>2020-10-29T14:24:52Z</time>
      </trkpt>
      <trkpt lat="49.11239" lon="0.72767">
        <ele>74.64</ele>
        <time>2020-10-29T14:25:07Z</time>
      </trkpt>
      <trkpt lat="49.11185" lon="0.72695">
        <ele>75.6</ele>
        <time>2020-10-29T14:25:24Z</time>
      </trkpt>
      <trkpt lat="49.11132" lon="0.72615">
        <ele>75.6</ele>
        <time>2020-10-29T14:25:41Z</time>
      </trkpt>
      <trkpt lat="49.1108" lon="0.72536">
        <ele>76.08</ele>
        <time>2020-10-29T14:25:59Z</time>
      </trkpt>
      <trkpt lat="49.11031" lon="0.72463">
        <ele>76.56</ele>
        <time>2020-10-29T14:26:15Z</time>
      </trkpt>
      <trkpt lat="49.10992" lon="0.72406">
        <ele>77.04</ele>
        <time>2020-10-29T14:26:28Z</time>
      </trkpt>
      <trkpt lat="49.10982" lon="0.72396">
        <ele>77.04</ele>
        <time>2020-10-29T14:26:31Z</time>
      </trkpt>
      <trkpt lat="49.10979" lon="0.72395">
        <ele>77.04</ele>
        <time>2020-10-29T14:26:32Z</time>
      </trkpt>
      <trkpt lat="49.10976" lon="0.72393">
        <ele>77.04</ele>
        <time>2020-10-29T14:26:33Z</time>
      </trkpt>
      <trkpt lat="49.10974" lon="0.7239">
        <ele>77.04</ele>
        <time>2020-10-29T14:26:34Z</time>
      </trkpt>
      <trkpt lat="49.10971" lon="0.72386">
        <ele>77.04</ele>
        <time>2020-10-29T14:26:35Z</time>
      </trkpt>
      <trkpt lat="49.10969" lon="0.72383">
        <ele>77.04</ele>
        <time>2020-10-29T14:26:36Z</time>
      </trkpt>
      <trkpt lat="49.10967" lon="0.72379">
        <ele>77.04</ele>
        <time>2020-10-29T14:26:37Z</time>
      </trkpt>
      <trkpt lat="49.10938" lon="0.72349">
        <ele>77.52</ele>
        <time>2020-10-29T14:26:50Z</time>
      </trkpt>
      <trkpt lat="49.10936" lon="0.72353">
        <ele>77.52</ele>
        <time>2020-10-29T14:26:51Z</time>
      </trkpt>
      <trkpt lat="49.10934" lon="0.72356">
        <ele>78</ele>
        <time>2020-10-29T14:26:52Z</time>
      </trkpt>
      <trkpt lat="49.10933" lon="0.7236">
        <ele>78</ele>
        <time>2020-10-29T14:26:53Z</time>
      </trkpt>
      <trkpt lat="49.10933" lon="0.72364">
        <ele>78</ele>
        <time>2020-10-29T14:26:54Z</time>
      </trkpt>
      <trkpt lat="49.10932" lon="0.72369">
        <ele>78</ele>
        <time>2020-10-29T14:26:55Z</time>
      </trkpt>
      <trkpt lat="49.10926" lon="0.72432">
        <ele>78.97</ele>
        <time>2020-10-29T14:27:10Z</time>
      </trkpt>
      <trkpt lat="49.10924" lon="0.72435">
        <ele>78.97</ele>
        <time>2020-10-29T14:27:11Z</time>
      </trkpt>
      <trkpt lat="49.10922" lon="0.72439">
        <ele>78.97</ele>
        <time>2020-10-29T14:27:12Z</time>
      </trkpt>
      <trkpt lat="49.1092" lon="0.72442">
        <ele>79.45</ele>
        <time>2020-10-29T14:27:13Z</time>
      </trkpt>
      <trkpt lat="49.10918" lon="0.72446">
        <ele>79.93</ele>
        <time>2020-10-29T14:27:14Z</time>
      </trkpt>
      <trkpt lat="49.10916" lon="0.7245">
        <ele>79.93</ele>
        <time>2020-10-29T14:27:15Z</time>
      </trkpt>
      <trkpt lat="49.10915" lon="0.72455">
        <ele>79.93</ele>
        <time>2020-10-29T14:27:16Z</time>
      </trkpt>
      <trkpt lat="49.10905" lon="0.72549">
        <ele>81.85</ele>
        <time>2020-10-29T14:27:36Z</time>
      </trkpt>
      <trkpt lat="49.10904" lon="0.72562">
        <ele>82.33</ele>
        <time>2020-10-29T14:27:39Z</time>
      </trkpt>
      <trkpt lat="49.10902" lon="0.72565">
        <ele>82.33</ele>
        <time>2020-10-29T14:27:40Z</time>
      </trkpt>
      <trkpt lat="49.10899" lon="0.72565">
        <ele>82.33</ele>
        <time>2020-10-29T14:27:41Z</time>
      </trkpt>
      <trkpt lat="49.10896" lon="0.72565">
        <ele>82.33</ele>
        <time>2020-10-29T14:27:42Z</time>
      </trkpt>
      <trkpt lat="49.10894" lon="0.72564">
        <ele>82.81</ele>
        <time>2020-10-29T14:27:43Z</time>
      </trkpt>
      <trkpt lat="49.10892" lon="0.7256">
        <ele>82.81</ele>
        <time>2020-10-29T14:27:44Z</time>
      </trkpt>
      <trkpt lat="49.10891" lon="0.72556">
        <ele>82.81</ele>
        <time>2020-10-29T14:27:45Z</time>
      </trkpt>
      <trkpt lat="49.1089" lon="0.72552">
        <ele>82.81</ele>
        <time>2020-10-29T14:27:46Z</time>
      </trkpt>
      <trkpt lat="49.10886" lon="0.72535">
        <ele>84.25</ele>
        <time>2020-10-29T14:27:50Z</time>
      </trkpt>
      <trkpt lat="49.10866" lon="0.72483">
        <ele>86.66</ele>
        <time>2020-10-29T14:28:03Z</time>
      </trkpt>
      <trkpt lat="49.10833" lon="0.72485">
        <ele>88.58</ele>
        <time>2020-10-29T14:28:14Z</time>
      </trkpt>
      <trkpt lat="49.10831" lon="0.72487">
        <ele>88.58</ele>
        <time>2020-10-29T14:28:15Z</time>
      </trkpt>
      <trkpt lat="49.10826" lon="0.72494">
        <ele>89.06</ele>
        <time>2020-10-29T14:28:19Z</time>
      </trkpt>
      <trkpt lat="49.10825" lon="0.72496">
        <ele>89.06</ele>
        <time>2020-10-29T14:28:20Z</time>
      </trkpt>
      <trkpt lat="49.10827" lon="0.72497">
        <ele>88.58</ele>
        <time>2020-10-29T14:28:33Z</time>
      </trkpt>
      <trkpt lat="49.10829" lon="0.72499">
        <ele>88.58</ele>
        <time>2020-10-29T14:28:41Z</time>
      </trkpt>
      <trkpt lat="49.1083" lon="0.725">
        <ele>88.58</ele>
        <time>2020-10-29T14:28:42Z</time>
      </trkpt>
      <trkpt lat="49.10832" lon="0.72498">
        <ele>88.58</ele>
        <time>2020-10-29T14:28:43Z</time>
      </trkpt>
      <trkpt lat="49.10832" lon="0.72495">
        <ele>88.58</ele>
        <time>2020-10-29T14:28:44Z</time>
      </trkpt>
      <trkpt lat="49.10832" lon="0.72492">
        <ele>88.58</ele>
        <time>2020-10-29T14:28:45Z</time>
      </trkpt>
      <trkpt lat="49.10832" lon="0.7249">
        <ele>88.58</ele>
        <time>2020-10-29T14:28:46Z</time>
      </trkpt>
      <trkpt lat="49.10827" lon="0.72455">
        <ele>87.14</ele>
        <time>2020-10-29T14:28:53Z</time>
      </trkpt>
      <trkpt lat="49.10827" lon="0.72447">
        <ele>86.18</ele>
        <time>2020-10-29T14:28:54Z</time>
      </trkpt>
      <trkpt lat="49.10829" lon="0.72418">
        <ele>84.73</ele>
        <time>2020-10-29T14:28:57Z</time>
      </trkpt>
      <trkpt lat="49.10831" lon="0.72362">
        <ele>81.37</ele>
        <time>2020-10-29T14:29:02Z</time>
      </trkpt>
      <trkpt lat="49.1083" lon="0.72338">
        <ele>80.89</ele>
        <time>2020-10-29T14:29:04Z</time>
      </trkpt>
      <trkpt lat="49.10827" lon="0.72307">
        <ele>79.45</ele>
        <time>2020-10-29T14:29:07Z</time>
      </trkpt>
      <trkpt lat="49.10825" lon="0.72289">
        <ele>78.97</ele>
        <time>2020-10-29T14:29:09Z</time>
      </trkpt>
      <trkpt lat="49.1081" lon="0.72231">
        <ele>77.04</ele>
        <time>2020-10-29T14:29:16Z</time>
      </trkpt>
      <trkpt lat="49.10772" lon="0.72147">
        <ele>77.04</ele>
        <time>2020-10-29T14:29:31Z</time>
      </trkpt>
      <trkpt lat="49.10739" lon="0.72077">
        <ele>75.6</ele>
        <time>2020-10-29T14:29:45Z</time>
      </trkpt>
      <trkpt lat="49.10706" lon="0.72007">
        <ele>75.12</ele>
        <time>2020-10-29T14:29:57Z</time>
      </trkpt>
      <trkpt lat="49.10664" lon="0.71916">
        <ele>75.6</ele>
        <time>2020-10-29T14:30:14Z</time>
      </trkpt>
      <trkpt lat="49.10647" lon="0.71882">
        <ele>76.56</ele>
        <time>2020-10-29T14:30:24Z</time>
      </trkpt>
      <trkpt lat="49.10646" lon="0.71881">
        <ele>76.56</ele>
        <time>2020-10-29T14:30:25Z</time>
      </trkpt>
      <trkpt lat="49.10644" lon="0.71881">
        <ele>77.04</ele>
        <time>2020-10-29T14:30:26Z</time>
      </trkpt>
      <trkpt lat="49.10641" lon="0.71882">
        <ele>77.04</ele>
        <time>2020-10-29T14:30:27Z</time>
      </trkpt>
      <trkpt lat="49.1064" lon="0.71883">
        <ele>77.04</ele>
        <time>2020-10-29T14:30:28Z</time>
      </trkpt>
      <trkpt lat="49.10638" lon="0.71885">
        <ele>77.04</ele>
        <time>2020-10-29T14:30:29Z</time>
      </trkpt>
      <trkpt lat="49.10636" lon="0.71886">
        <ele>77.04</ele>
        <time>2020-10-29T14:30:30Z</time>
      </trkpt>
      <trkpt lat="49.10634" lon="0.71888">
        <ele>77.04</ele>
        <time>2020-10-29T14:30:31Z</time>
      </trkpt>
      <trkpt lat="49.10632" lon="0.7189">
        <ele>77.04</ele>
        <time>2020-10-29T14:30:32Z</time>
      </trkpt>
      <trkpt lat="49.10629" lon="0.71892">
        <ele>77.04</ele>
        <time>2020-10-29T14:30:33Z</time>
      </trkpt>
      <trkpt lat="49.10627" lon="0.71894">
        <ele>77.04</ele>
        <time>2020-10-29T14:30:34Z</time>
      </trkpt>
      <trkpt lat="49.10584" lon="0.71941">
        <ele>79.45</ele>
        <time>2020-10-29T14:30:55Z</time>
      </trkpt>
      <trkpt lat="49.1056" lon="0.71991">
        <ele>80.89</ele>
        <time>2020-10-29T14:31:12Z</time>
      </trkpt>
      <trkpt lat="49.10538" lon="0.72037">
        <ele>83.77</ele>
        <time>2020-10-29T14:31:27Z</time>
      </trkpt>
      <trkpt lat="49.10518" lon="0.72078">
        <ele>85.69</ele>
        <time>2020-10-29T14:31:42Z</time>
      </trkpt>
      <trkpt lat="49.1049" lon="0.72137">
        <ele>87.62</ele>
        <time>2020-10-29T14:32:01Z</time>
      </trkpt>
      <trkpt lat="49.1046" lon="0.72207">
        <ele>89.54</ele>
        <time>2020-10-29T14:32:22Z</time>
      </trkpt>
      <trkpt lat="49.10437" lon="0.72257">
        <ele>91.46</ele>
        <time>2020-10-29T14:32:37Z</time>
      </trkpt>
      <trkpt lat="49.1041" lon="0.72315">
        <ele>93.87</ele>
        <time>2020-10-29T14:32:55Z</time>
      </trkpt>
      <trkpt lat="49.1039" lon="0.72359">
        <ele>95.79</ele>
        <time>2020-10-29T14:33:10Z</time>
      </trkpt>
      <trkpt lat="49.10377" lon="0.72398">
        <ele>98.19</ele>
        <time>2020-10-29T14:33:26Z</time>
      </trkpt>
      <trkpt lat="49.10377" lon="0.72443">
        <ele>99.15</ele>
        <time>2020-10-29T14:33:44Z</time>
      </trkpt>
      <trkpt lat="49.10398" lon="0.72454">
        <ele>99.63</ele>
        <time>2020-10-29T14:33:56Z</time>
      </trkpt>
      <trkpt lat="49.1042" lon="0.72449">
        <ele>98.19</ele>
        <time>2020-10-29T14:34:02Z</time>
      </trkpt>
      <trkpt lat="49.10428" lon="0.72448">
        <ele>98.19</ele>
        <time>2020-10-29T14:34:04Z</time>
      </trkpt>
      <trkpt lat="49.10432" lon="0.72447">
        <ele>98.19</ele>
        <time>2020-10-29T14:34:05Z</time>
      </trkpt>
      <trkpt lat="49.10436" lon="0.72447">
        <ele>97.71</ele>
        <time>2020-10-29T14:34:06Z</time>
      </trkpt>
      <trkpt lat="49.10441" lon="0.72447">
        <ele>97.71</ele>
        <time>2020-10-29T14:34:07Z</time>
      </trkpt>
      <trkpt lat="49.10446" lon="0.72447">
        <ele>97.23</ele>
        <time>2020-10-29T14:34:08Z</time>
      </trkpt>
      <trkpt lat="49.10464" lon="0.72448">
        <ele>97.23</ele>
        <time>2020-10-29T14:34:12Z</time>
      </trkpt>
      <trkpt lat="49.10473" lon="0.7245">
        <ele>96.75</ele>
        <time>2020-10-29T14:34:14Z</time>
      </trkpt>
      <trkpt lat="49.10478" lon="0.72451">
        <ele>96.75</ele>
        <time>2020-10-29T14:34:15Z</time>
      </trkpt>
      <trkpt lat="49.10558" lon="0.72432">
        <ele>94.35</ele>
        <time>2020-10-29T14:34:31Z</time>
      </trkpt>
      <trkpt lat="49.10569" lon="0.72429">
        <ele>94.35</ele>
        <time>2020-10-29T14:34:33Z</time>
      </trkpt>
      <trkpt lat="49.10593" lon="0.72427">
        <ele>93.87</ele>
        <time>2020-10-29T14:34:37Z</time>
      </trkpt>
      <trkpt lat="49.10599" lon="0.72428">
        <ele>93.87</ele>
        <time>2020-10-29T14:34:38Z</time>
      </trkpt>
      <trkpt lat="49.10689" lon="0.72451">
        <ele>92.42</ele>
        <time>2020-10-29T14:34:53Z</time>
      </trkpt>
      <trkpt lat="49.10782" lon="0.72485">
        <ele>91.94</ele>
        <time>2020-10-29T14:35:08Z</time>
      </trkpt>
      <trkpt lat="49.10817" lon="0.72488">
        <ele>89.54</ele>
        <time>2020-10-29T14:35:15Z</time>
      </trkpt>
      <trkpt lat="49.10849" lon="0.72487">
        <ele>87.14</ele>
        <time>2020-10-29T14:35:25Z</time>
      </trkpt>
      <trkpt lat="49.10861" lon="0.72487">
        <ele>86.18</ele>
        <time>2020-10-29T14:35:27Z</time>
      </trkpt>
      <trkpt lat="49.10866" lon="0.7249">
        <ele>86.18</ele>
        <time>2020-10-29T14:35:28Z</time>
      </trkpt>
      <trkpt lat="49.10871" lon="0.72496">
        <ele>85.69</ele>
        <time>2020-10-29T14:35:29Z</time>
      </trkpt>
      <trkpt lat="49.10875" lon="0.72504">
        <ele>84.73</ele>
        <time>2020-10-29T14:35:30Z</time>
      </trkpt>
      <trkpt lat="49.10879" lon="0.72514">
        <ele>83.77</ele>
        <time>2020-10-29T14:35:31Z</time>
      </trkpt>
      <trkpt lat="49.10882" lon="0.72526">
        <ele>82.81</ele>
        <time>2020-10-29T14:35:32Z</time>
      </trkpt>
      <trkpt lat="49.10884" lon="0.72537">
        <ele>82.81</ele>
        <time>2020-10-29T14:35:33Z</time>
      </trkpt>
      <trkpt lat="49.10902" lon="0.72602">
        <ele>81.37</ele>
        <time>2020-10-29T14:35:39Z</time>
      </trkpt>
      <trkpt lat="49.10904" lon="0.72612">
        <ele>80.89</ele>
        <time>2020-10-29T14:35:40Z</time>
      </trkpt>
      <trkpt lat="49.10906" lon="0.7267">
        <ele>82.33</ele>
        <time>2020-10-29T14:35:46Z</time>
      </trkpt>
      <trkpt lat="49.10907" lon="0.72795">
        <ele>83.29</ele>
        <time>2020-10-29T14:36:00Z</time>
      </trkpt>
      <trkpt lat="49.10906" lon="0.72804">
        <ele>83.29</ele>
        <time>2020-10-29T14:36:01Z</time>
      </trkpt>
      <trkpt lat="49.10904" lon="0.72812">
        <ele>83.29</ele>
        <time>2020-10-29T14:36:02Z</time>
      </trkpt>
      <trkpt lat="49.10895" lon="0.7284">
        <ele>83.29</ele>
        <time>2020-10-29T14:36:05Z</time>
      </trkpt>
      <trkpt lat="49.10831" lon="0.72967">
        <ele>81.37</ele>
        <time>2020-10-29T14:36:20Z</time>
      </trkpt>
      <trkpt lat="49.10739" lon="0.7315">
        <ele>79.45</ele>
        <time>2020-10-29T14:36:40Z</time>
      </trkpt>
      <trkpt lat="49.10643" lon="0.7332">
        <ele>76.56</ele>
        <time>2020-10-29T14:36:59Z</time>
      </trkpt>
      <trkpt lat="49.10554" lon="0.73435">
        <ele>76.08</ele>
        <time>2020-10-29T14:37:16Z</time>
      </trkpt>
      <trkpt lat="49.10517" lon="0.73475">
        <ele>76.08</ele>
        <time>2020-10-29T14:37:24Z</time>
      </trkpt>
      <trkpt lat="49.10449" lon="0.73538">
        <ele>76.08</ele>
        <time>2020-10-29T14:37:38Z</time>
      </trkpt>
      <trkpt lat="49.10424" lon="0.73557">
        <ele>76.08</ele>
        <time>2020-10-29T14:37:43Z</time>
      </trkpt>
      <trkpt lat="49.10422" lon="0.73563">
        <ele>76.08</ele>
        <time>2020-10-29T14:37:44Z</time>
      </trkpt>
      <trkpt lat="49.10421" lon="0.73571">
        <ele>77.04</ele>
        <time>2020-10-29T14:37:45Z</time>
      </trkpt>
      <trkpt lat="49.10422" lon="0.73576">
        <ele>77.04</ele>
        <time>2020-10-29T14:37:46Z</time>
      </trkpt>
      <trkpt lat="49.10423" lon="0.73584">
        <ele>77.04</ele>
        <time>2020-10-29T14:37:47Z</time>
      </trkpt>
      <trkpt lat="49.10427" lon="0.73599">
        <ele>75.6</ele>
        <time>2020-10-29T14:37:49Z</time>
      </trkpt>
      <trkpt lat="49.1045" lon="0.73723">
        <ele>74.16</ele>
        <time>2020-10-29T14:38:04Z</time>
      </trkpt>
      <trkpt lat="49.10453" lon="0.73751">
        <ele>73.68</ele>
        <time>2020-10-29T14:38:07Z</time>
      </trkpt>
      <trkpt lat="49.10456" lon="0.73767">
        <ele>73.68</ele>
        <time>2020-10-29T14:38:09Z</time>
      </trkpt>
      <trkpt lat="49.10458" lon="0.73775">
        <ele>73.68</ele>
        <time>2020-10-29T14:38:10Z</time>
      </trkpt>
      <trkpt lat="49.10461" lon="0.73783">
        <ele>73.68</ele>
        <time>2020-10-29T14:38:11Z</time>
      </trkpt>
      <trkpt lat="49.10465" lon="0.7379">
        <ele>73.68</ele>
        <time>2020-10-29T14:38:12Z</time>
      </trkpt>
      <trkpt lat="49.10469" lon="0.73797">
        <ele>73.68</ele>
        <time>2020-10-29T14:38:13Z</time>
      </trkpt>
      <trkpt lat="49.10473" lon="0.73804">
        <ele>73.68</ele>
        <time>2020-10-29T14:38:14Z</time>
      </trkpt>
      <trkpt lat="49.10478" lon="0.7381">
        <ele>73.68</ele>
        <time>2020-10-29T14:38:15Z</time>
      </trkpt>
      <trkpt lat="49.10483" lon="0.73815">
        <ele>73.2</ele>
        <time>2020-10-29T14:38:16Z</time>
      </trkpt>
      <trkpt lat="49.10494" lon="0.73827">
        <ele>73.68</ele>
        <time>2020-10-29T14:38:18Z</time>
      </trkpt>
      <trkpt lat="49.10499" lon="0.73834">
        <ele>73.68</ele>
        <time>2020-10-29T14:38:19Z</time>
      </trkpt>
      <trkpt lat="49.10503" lon="0.73842">
        <ele>73.68</ele>
        <time>2020-10-29T14:38:20Z</time>
      </trkpt>
      <trkpt lat="49.10507" lon="0.7385">
        <ele>73.68</ele>
        <time>2020-10-29T14:38:21Z</time>
      </trkpt>
      <trkpt lat="49.10509" lon="0.7386">
        <ele>73.68</ele>
        <time>2020-10-29T14:38:22Z</time>
      </trkpt>
      <trkpt lat="49.10511" lon="0.73869">
        <ele>73.68</ele>
        <time>2020-10-29T14:38:23Z</time>
      </trkpt>
      <trkpt lat="49.10513" lon="0.73879">
        <ele>73.68</ele>
        <time>2020-10-29T14:38:24Z</time>
      </trkpt>
      <trkpt lat="49.10514" lon="0.73889">
        <ele>73.68</ele>
        <time>2020-10-29T14:38:25Z</time>
      </trkpt>
      <trkpt lat="49.10513" lon="0.739">
        <ele>73.68</ele>
        <time>2020-10-29T14:38:26Z</time>
      </trkpt>
      <trkpt lat="49.10512" lon="0.7391">
        <ele>73.68</ele>
        <time>2020-10-29T14:38:27Z</time>
      </trkpt>
      <trkpt lat="49.10509" lon="0.73919">
        <ele>73.68</ele>
        <time>2020-10-29T14:38:28Z</time>
      </trkpt>
      <trkpt lat="49.10506" lon="0.73927">
        <ele>73.68</ele>
        <time>2020-10-29T14:38:29Z</time>
      </trkpt>
      <trkpt lat="49.10502" lon="0.73933">
        <ele>73.68</ele>
        <time>2020-10-29T14:38:30Z</time>
      </trkpt>
      <trkpt lat="49.10498" lon="0.73939">
        <ele>73.2</ele>
        <time>2020-10-29T14:38:31Z</time>
      </trkpt>
      <trkpt lat="49.10494" lon="0.73945">
        <ele>73.68</ele>
        <time>2020-10-29T14:38:32Z</time>
      </trkpt>
      <trkpt lat="49.10443" lon="0.74011">
        <ele>72.72</ele>
        <time>2020-10-29T14:38:47Z</time>
      </trkpt>
      <trkpt lat="49.10406" lon="0.74064">
        <ele>73.68</ele>
        <time>2020-10-29T14:38:58Z</time>
      </trkpt>
      <trkpt lat="49.10373" lon="0.7415">
        <ele>74.16</ele>
        <time>2020-10-29T14:39:13Z</time>
      </trkpt>
      <trkpt lat="49.10369" lon="0.7416">
        <ele>74.16</ele>
        <time>2020-10-29T14:39:15Z</time>
      </trkpt>
      <trkpt lat="49.10364" lon="0.74171">
        <ele>74.16</ele>
        <time>2020-10-29T14:39:17Z</time>
      </trkpt>
      <trkpt lat="49.10346" lon="0.74194">
        <ele>74.16</ele>
        <time>2020-10-29T14:39:22Z</time>
      </trkpt>
      <trkpt lat="49.10283" lon="0.74244">
        <ele>74.16</ele>
        <time>2020-10-29T14:39:38Z</time>
      </trkpt>
      <trkpt lat="49.10252" lon="0.74294">
        <ele>74.16</ele>
        <time>2020-10-29T14:39:50Z</time>
      </trkpt>
      <trkpt lat="49.10237" lon="0.74316">
        <ele>74.16</ele>
        <time>2020-10-29T14:39:55Z</time>
      </trkpt>
      <trkpt lat="49.10232" lon="0.7432">
        <ele>74.16</ele>
        <time>2020-10-29T14:39:56Z</time>
      </trkpt>
      <trkpt lat="49.1015" lon="0.74383">
        <ele>75.12</ele>
        <time>2020-10-29T14:40:16Z</time>
      </trkpt>
      <trkpt lat="49.10146" lon="0.74385">
        <ele>75.12</ele>
        <time>2020-10-29T14:40:17Z</time>
      </trkpt>
      <trkpt lat="49.10136" lon="0.74389">
        <ele>75.12</ele>
        <time>2020-10-29T14:40:19Z</time>
      </trkpt>
      <trkpt lat="49.10132" lon="0.74393">
        <ele>75.12</ele>
        <time>2020-10-29T14:40:20Z</time>
      </trkpt>
      <trkpt lat="49.10117" lon="0.74408">
        <ele>75.12</ele>
        <time>2020-10-29T14:40:24Z</time>
      </trkpt>
      <trkpt lat="49.10109" lon="0.74414">
        <ele>75.12</ele>
        <time>2020-10-29T14:40:26Z</time>
      </trkpt>
      <trkpt lat="49.10056" lon="0.74442">
        <ele>75.12</ele>
        <time>2020-10-29T14:40:39Z</time>
      </trkpt>
      <trkpt lat="49.10046" lon="0.7445">
        <ele>75.12</ele>
        <time>2020-10-29T14:40:42Z</time>
      </trkpt>
      <trkpt lat="49.10032" lon="0.74461">
        <ele>75.12</ele>
        <time>2020-10-29T14:40:46Z</time>
      </trkpt>
      <trkpt lat="49.10028" lon="0.74462">
        <ele>75.12</ele>
        <time>2020-10-29T14:40:47Z</time>
      </trkpt>
      <trkpt lat="49.10023" lon="0.74463">
        <ele>75.12</ele>
        <time>2020-10-29T14:40:48Z</time>
      </trkpt>
      <trkpt lat="49.10019" lon="0.74463">
        <ele>75.12</ele>
        <time>2020-10-29T14:40:49Z</time>
      </trkpt>
      <trkpt lat="49.10014" lon="0.74462">
        <ele>75.12</ele>
        <time>2020-10-29T14:40:50Z</time>
      </trkpt>
      <trkpt lat="49.09978" lon="0.74471">
        <ele>75.12</ele>
        <time>2020-10-29T14:41:02Z</time>
      </trkpt>
      <trkpt lat="49.09976" lon="0.74472">
        <ele>75.12</ele>
        <time>2020-10-29T14:41:03Z</time>
      </trkpt>
      <trkpt lat="49.09974" lon="0.74475">
        <ele>75.12</ele>
        <time>2020-10-29T14:41:04Z</time>
      </trkpt>
      <trkpt lat="49.09972" lon="0.74477">
        <ele>75.12</ele>
        <time>2020-10-29T14:41:05Z</time>
      </trkpt>
      <trkpt lat="49.09969" lon="0.7448">
        <ele>75.12</ele>
        <time>2020-10-29T14:41:06Z</time>
      </trkpt>
      <trkpt lat="49.09967" lon="0.74482">
        <ele>75.12</ele>
        <time>2020-10-29T14:41:07Z</time>
      </trkpt>
      <trkpt lat="49.09964" lon="0.74485">
        <ele>75.12</ele>
        <time>2020-10-29T14:41:08Z</time>
      </trkpt>
      <trkpt lat="49.09961" lon="0.74489">
        <ele>75.12</ele>
        <time>2020-10-29T14:41:09Z</time>
      </trkpt>
      <trkpt lat="49.09959" lon="0.74492">
        <ele>75.6</ele>
        <time>2020-10-29T14:41:10Z</time>
      </trkpt>
      <trkpt lat="49.09956" lon="0.74495">
        <ele>75.6</ele>
        <time>2020-10-29T14:41:11Z</time>
      </trkpt>
      <trkpt lat="49.09924" lon="0.74538">
        <ele>75.6</ele>
        <time>2020-10-29T14:41:23Z</time>
      </trkpt>
      <trkpt lat="49.099" lon="0.74585">
        <ele>76.08</ele>
        <time>2020-10-29T14:41:37Z</time>
      </trkpt>
      <trkpt lat="49.09889" lon="0.74601">
        <ele>76.08</ele>
        <time>2020-10-29T14:41:45Z</time>
      </trkpt>
      <trkpt lat="49.09886" lon="0.74603">
        <ele>76.08</ele>
        <time>2020-10-29T14:41:46Z</time>
      </trkpt>
      <trkpt lat="49.09883" lon="0.74604">
        <ele>76.08</ele>
        <time>2020-10-29T14:41:47Z</time>
      </trkpt>
      <trkpt lat="49.09861" lon="0.74588">
        <ele>76.08</ele>
        <time>2020-10-29T14:41:58Z</time>
      </trkpt>
      <trkpt lat="49.09835" lon="0.74594">
        <ele>76.08</ele>
        <time>2020-10-29T14:42:08Z</time>
      </trkpt>
      <trkpt lat="49.09806" lon="0.74634">
        <ele>76.56</ele>
        <time>2020-10-29T14:42:23Z</time>
      </trkpt>
      <trkpt lat="49.09771" lon="0.74679">
        <ele>77.04</ele>
        <time>2020-10-29T14:42:37Z</time>
      </trkpt>
      <trkpt lat="49.09728" lon="0.74729">
        <ele>77.04</ele>
        <time>2020-10-29T14:42:51Z</time>
      </trkpt>
      <trkpt lat="49.09699" lon="0.74785">
        <ele>77.04</ele>
        <time>2020-10-29T14:43:04Z</time>
      </trkpt>
      <trkpt lat="49.09667" lon="0.74838">
        <ele>77.04</ele>
        <time>2020-10-29T14:43:16Z</time>
      </trkpt>
      <trkpt lat="49.09656" lon="0.74854">
        <ele>77.52</ele>
        <time>2020-10-29T14:43:20Z</time>
      </trkpt>
      <trkpt lat="49.09628" lon="0.74892">
        <ele>77.52</ele>
        <time>2020-10-29T14:43:32Z</time>
      </trkpt>
      <trkpt lat="49.09589" lon="0.74929">
        <ele>78</ele>
        <time>2020-10-29T14:43:46Z</time>
      </trkpt>
      <trkpt lat="49.09552" lon="0.74976">
        <ele>78.48</ele>
        <time>2020-10-29T14:44:01Z</time>
      </trkpt>
      <trkpt lat="49.09525" lon="0.75022">
        <ele>78.48</ele>
        <time>2020-10-29T14:44:14Z</time>
      </trkpt>
      <trkpt lat="49.09499" lon="0.75086">
        <ele>78.48</ele>
        <time>2020-10-29T14:44:29Z</time>
      </trkpt>
      <trkpt lat="49.0947" lon="0.75158">
        <ele>78.97</ele>
        <time>2020-10-29T14:44:46Z</time>
      </trkpt>
      <trkpt lat="49.09462" lon="0.75176">
        <ele>78.97</ele>
        <time>2020-10-29T14:44:52Z</time>
      </trkpt>
      <trkpt lat="49.09463" lon="0.75179">
        <ele>78.97</ele>
        <time>2020-10-29T14:44:53Z</time>
      </trkpt>
      <trkpt lat="49.09464" lon="0.75182">
        <ele>78.97</ele>
        <time>2020-10-29T14:44:54Z</time>
      </trkpt>
      <trkpt lat="49.09466" lon="0.75184">
        <ele>78.97</ele>
        <time>2020-10-29T14:44:55Z</time>
      </trkpt>
      <trkpt lat="49.09469" lon="0.75187">
        <ele>78.97</ele>
        <time>2020-10-29T14:44:56Z</time>
      </trkpt>
      <trkpt lat="49.09527" lon="0.75238">
        <ele>78.97</ele>
        <time>2020-10-29T14:45:12Z</time>
      </trkpt>
      <trkpt lat="49.0954" lon="0.75247">
        <ele>78.97</ele>
        <time>2020-10-29T14:45:15Z</time>
      </trkpt>
      <trkpt lat="49.09615" lon="0.7528">
        <ele>78.97</ele>
        <time>2020-10-29T14:45:31Z</time>
      </trkpt>
      <trkpt lat="49.0962" lon="0.75282">
        <ele>78.97</ele>
        <time>2020-10-29T14:45:32Z</time>
      </trkpt>
      <trkpt lat="49.09633" lon="0.75291">
        <ele>78.97</ele>
        <time>2020-10-29T14:45:35Z</time>
      </trkpt>
      <trkpt lat="49.09637" lon="0.75295">
        <ele>78.97</ele>
        <time>2020-10-29T14:45:36Z</time>
      </trkpt>
      <trkpt lat="49.09641" lon="0.753">
        <ele>78.97</ele>
        <time>2020-10-29T14:45:37Z</time>
      </trkpt>
      <trkpt lat="49.09645" lon="0.75304">
        <ele>78.97</ele>
        <time>2020-10-29T14:45:38Z</time>
      </trkpt>
      <trkpt lat="49.09649" lon="0.75309">
        <ele>78.97</ele>
        <time>2020-10-29T14:45:39Z</time>
      </trkpt>
      <trkpt lat="49.09654" lon="0.75314">
        <ele>78.97</ele>
        <time>2020-10-29T14:45:40Z</time>
      </trkpt>
      <trkpt lat="49.09658" lon="0.75321">
        <ele>78.97</ele>
        <time>2020-10-29T14:45:41Z</time>
      </trkpt>
      <trkpt lat="49.09681" lon="0.75354">
        <ele>78.97</ele>
        <time>2020-10-29T14:45:47Z</time>
      </trkpt>
      <trkpt lat="49.09684" lon="0.75361">
        <ele>78.97</ele>
        <time>2020-10-29T14:45:48Z</time>
      </trkpt>
      <trkpt lat="49.09687" lon="0.75368">
        <ele>78.97</ele>
        <time>2020-10-29T14:45:49Z</time>
      </trkpt>
      <trkpt lat="49.0971" lon="0.75435">
        <ele>78.97</ele>
        <time>2020-10-29T14:45:59Z</time>
      </trkpt>
      <trkpt lat="49.09727" lon="0.75484">
        <ele>77.52</ele>
        <time>2020-10-29T14:46:06Z</time>
      </trkpt>
      <trkpt lat="49.0973" lon="0.75489">
        <ele>77.52</ele>
        <time>2020-10-29T14:46:07Z</time>
      </trkpt>
      <trkpt lat="49.09734" lon="0.75494">
        <ele>77.52</ele>
        <time>2020-10-29T14:46:08Z</time>
      </trkpt>
      <trkpt lat="49.09737" lon="0.75498">
        <ele>77.52</ele>
        <time>2020-10-29T14:46:09Z</time>
      </trkpt>
      <trkpt lat="49.0974" lon="0.75502">
        <ele>77.52</ele>
        <time>2020-10-29T14:46:10Z</time>
      </trkpt>
      <trkpt lat="49.09744" lon="0.75505">
        <ele>77.52</ele>
        <time>2020-10-29T14:46:11Z</time>
      </trkpt>
      <trkpt lat="49.09764" lon="0.75523">
        <ele>77.52</ele>
        <time>2020-10-29T14:46:17Z</time>
      </trkpt>
      <trkpt lat="49.09767" lon="0.75527">
        <ele>77.52</ele>
        <time>2020-10-29T14:46:18Z</time>
      </trkpt>
      <trkpt lat="49.09769" lon="0.75531">
        <ele>77.52</ele>
        <time>2020-10-29T14:46:19Z</time>
      </trkpt>
      <trkpt lat="49.09771" lon="0.75536">
        <ele>77.52</ele>
        <time>2020-10-29T14:46:20Z</time>
      </trkpt>
      <trkpt lat="49.09772" lon="0.75541">
        <ele>77.52</ele>
        <time>2020-10-29T14:46:21Z</time>
      </trkpt>
      <trkpt lat="49.0979" lon="0.756">
        <ele>78.97</ele>
        <time>2020-10-29T14:46:36Z</time>
      </trkpt>
      <trkpt lat="49.09793" lon="0.75612">
        <ele>78.97</ele>
        <time>2020-10-29T14:46:40Z</time>
      </trkpt>
      <trkpt lat="49.09792" lon="0.75614">
        <ele>78.97</ele>
        <time>2020-10-29T14:46:41Z</time>
      </trkpt>
      <trkpt lat="49.09791" lon="0.75618">
        <ele>78.97</ele>
        <time>2020-10-29T14:46:50Z</time>
      </trkpt>
      <trkpt lat="49.0979" lon="0.7562">
        <ele>78.97</ele>
        <time>2020-10-29T14:46:51Z</time>
      </trkpt>
      <trkpt lat="49.09788" lon="0.75622">
        <ele>78.97</ele>
        <time>2020-10-29T14:46:52Z</time>
      </trkpt>
      <trkpt lat="49.09749" lon="0.7566">
        <ele>79.45</ele>
        <time>2020-10-29T14:47:06Z</time>
      </trkpt>
      <trkpt lat="49.0972" lon="0.75696">
        <ele>80.89</ele>
        <time>2020-10-29T14:47:16Z</time>
      </trkpt>
      <trkpt lat="49.09717" lon="0.757">
        <ele>80.89</ele>
        <time>2020-10-29T14:47:17Z</time>
      </trkpt>
      <trkpt lat="49.09709" lon="0.75708">
        <ele>80.89</ele>
        <time>2020-10-29T14:47:19Z</time>
      </trkpt>
      <trkpt lat="49.09705" lon="0.75712">
        <ele>80.89</ele>
        <time>2020-10-29T14:47:20Z</time>
      </trkpt>
      <trkpt lat="49.09643" lon="0.75781">
        <ele>80.89</ele>
        <time>2020-10-29T14:47:35Z</time>
      </trkpt>
      <trkpt lat="49.09582" lon="0.75835">
        <ele>81.37</ele>
        <time>2020-10-29T14:47:51Z</time>
      </trkpt>
      <trkpt lat="49.09518" lon="0.75858">
        <ele>81.85</ele>
        <time>2020-10-29T14:48:05Z</time>
      </trkpt>
      <trkpt lat="49.09422" lon="0.75894">
        <ele>80.41</ele>
        <time>2020-10-29T14:48:24Z</time>
      </trkpt>
      <trkpt lat="49.09367" lon="0.75914">
        <ele>81.85</ele>
        <time>2020-10-29T14:48:38Z</time>
      </trkpt>
      <trkpt lat="49.09283" lon="0.75929">
        <ele>83.29</ele>
        <time>2020-10-29T14:48:57Z</time>
      </trkpt>
      <trkpt lat="49.09278" lon="0.75931">
        <ele>83.29</ele>
        <time>2020-10-29T14:48:58Z</time>
      </trkpt>
      <trkpt lat="49.09216" lon="0.7598">
        <ele>83.29</ele>
        <time>2020-10-29T14:49:11Z</time>
      </trkpt>
      <trkpt lat="49.09162" lon="0.76062">
        <ele>83.29</ele>
        <time>2020-10-29T14:49:25Z</time>
      </trkpt>
      <trkpt lat="49.09116" lon="0.76148">
        <ele>83.29</ele>
        <time>2020-10-29T14:49:40Z</time>
      </trkpt>
      <trkpt lat="49.0911" lon="0.7616">
        <ele>83.29</ele>
        <time>2020-10-29T14:49:42Z</time>
      </trkpt>
      <trkpt lat="49.09104" lon="0.76173">
        <ele>83.29</ele>
        <time>2020-10-29T14:49:44Z</time>
      </trkpt>
      <trkpt lat="49.09082" lon="0.76211">
        <ele>81.85</ele>
        <time>2020-10-29T14:49:50Z</time>
      </trkpt>
      <trkpt lat="49.09075" lon="0.76224">
        <ele>81.85</ele>
        <time>2020-10-29T14:49:52Z</time>
      </trkpt>
      <trkpt lat="49.09071" lon="0.7623">
        <ele>81.85</ele>
        <time>2020-10-29T14:49:53Z</time>
      </trkpt>
      <trkpt lat="49.09043" lon="0.76272">
        <ele>83.29</ele>
        <time>2020-10-29T14:50:00Z</time>
      </trkpt>
      <trkpt lat="49.08975" lon="0.76369">
        <ele>85.21</ele>
        <time>2020-10-29T14:50:17Z</time>
      </trkpt>
      <trkpt lat="49.08912" lon="0.76442">
        <ele>88.1</ele>
        <time>2020-10-29T14:50:33Z</time>
      </trkpt>
      <trkpt lat="49.08882" lon="0.76497">
        <ele>88.58</ele>
        <time>2020-10-29T14:50:46Z</time>
      </trkpt>
      <trkpt lat="49.08865" lon="0.76531">
        <ele>86.66</ele>
        <time>2020-10-29T14:50:58Z</time>
      </trkpt>
      <trkpt lat="49.08861" lon="0.76531">
        <ele>86.18</ele>
        <time>2020-10-29T14:50:59Z</time>
      </trkpt>
      <trkpt lat="49.08857" lon="0.7653">
        <ele>85.69</ele>
        <time>2020-10-29T14:51:00Z</time>
      </trkpt>
      <trkpt lat="49.08854" lon="0.76528">
        <ele>85.69</ele>
        <time>2020-10-29T14:51:01Z</time>
      </trkpt>
      <trkpt lat="49.0885" lon="0.76524">
        <ele>85.21</ele>
        <time>2020-10-29T14:51:02Z</time>
      </trkpt>
      <trkpt lat="49.08846" lon="0.76519">
        <ele>85.21</ele>
        <time>2020-10-29T14:51:03Z</time>
      </trkpt>
      <trkpt lat="49.08843" lon="0.76515">
        <ele>84.73</ele>
        <time>2020-10-29T14:51:04Z</time>
      </trkpt>
      <trkpt lat="49.08839" lon="0.7651">
        <ele>83.77</ele>
        <time>2020-10-29T14:51:05Z</time>
      </trkpt>
      <trkpt lat="49.08792" lon="0.76444">
        <ele>81.37</ele>
        <time>2020-10-29T14:51:18Z</time>
      </trkpt>
      <trkpt lat="49.0879" lon="0.76439">
        <ele>81.37</ele>
        <time>2020-10-29T14:51:19Z</time>
      </trkpt>
      <trkpt lat="49.08762" lon="0.76376">
        <ele>81.37</ele>
        <time>2020-10-29T14:51:33Z</time>
      </trkpt>
      <trkpt lat="49.08754" lon="0.76344">
        <ele>81.37</ele>
        <time>2020-10-29T14:51:40Z</time>
      </trkpt>
      <trkpt lat="49.08754" lon="0.76341">
        <ele>81.37</ele>
        <time>2020-10-29T14:51:41Z</time>
      </trkpt>
      <trkpt lat="49.08755" lon="0.76335">
        <ele>81.37</ele>
        <time>2020-10-29T14:51:43Z</time>
      </trkpt>
      <trkpt lat="49.08754" lon="0.76333">
        <ele>81.37</ele>
        <time>2020-10-29T14:51:44Z</time>
      </trkpt>
      <trkpt lat="49.08753" lon="0.76332">
        <ele>82.33</ele>
        <time>2020-10-29T14:52:00Z</time>
      </trkpt>
      <trkpt lat="49.08754" lon="0.76333">
        <ele>78</ele>
        <time>2020-10-29T14:52:08Z</time>
      </trkpt>
      <trkpt lat="49.08472" lon="0.76117">
        <ele>88.1</ele>
        <time>2020-10-29T15:10:50Z</time>
      </trkpt>
      <trkpt lat="49.08472" lon="0.76117">
        <ele>88.1</ele>
        <time>2020-10-29T15:10:51Z</time>
      </trkpt>
      <trkpt lat="49.08467" lon="0.76111">
        <ele>88.1</ele>
        <time>2020-10-29T15:11:26Z</time>
      </trkpt>
    </trkseg>
  </trk>
</gpx>